<?xml version="1.0" encoding="UTF-8" standalone="no" ?>
<gpx xmlns="http://www.topografix.com/GPX/1/1" xmlns:xsi="http://www.w3.org/2001/XMLSchema-instance" xsi:schemaLocation="http://www.topografix.com/GPX/1/1 http://www.topografix.com/GPX/1/1/gpx.xsd" version="1.1" creator="VisuGPX - https://www.visugpx.com">
  <metadata>
    <name>vtt circuit n° 4 nort sur erdre gr 3</name>
    <desc><![CDATA[sortie avec club ,très beau temps un peu froid
marais avec niveau bas]]></desc>
  </metadata>
  <trk>
    <name><![CDATA[2018-02-10-15-11-57 on GPSies.com]]></name>
    <trkseg>
      <trkpt lat="47.4381" lon="-1.49743">
        <ele>7</ele>
        <time>2018-02-10T15:11:57Z</time>
      </trkpt>
      <trkpt lat="47.43808" lon="-1.49745">
        <ele>8</ele>
        <time>2018-02-10T15:13:16Z</time>
      </trkpt>
      <trkpt lat="47.43804" lon="-1.49745">
        <ele>8</ele>
        <time>2018-02-10T15:13:18Z</time>
      </trkpt>
      <trkpt lat="47.43788" lon="-1.4974">
        <ele>8</ele>
        <time>2018-02-10T15:13:23Z</time>
      </trkpt>
      <trkpt lat="47.43777" lon="-1.49737">
        <ele>8</ele>
        <time>2018-02-10T15:13:28Z</time>
      </trkpt>
      <trkpt lat="47.4377" lon="-1.49742">
        <ele>8</ele>
        <time>2018-02-10T15:13:32Z</time>
      </trkpt>
      <trkpt lat="47.43768" lon="-1.49742">
        <ele>8</ele>
        <time>2018-02-10T15:13:33Z</time>
      </trkpt>
      <trkpt lat="47.4375" lon="-1.49739">
        <ele>8</ele>
        <time>2018-02-10T15:13:38Z</time>
      </trkpt>
      <trkpt lat="47.43722" lon="-1.49734">
        <ele>8</ele>
        <time>2018-02-10T15:13:45Z</time>
      </trkpt>
      <trkpt lat="47.4369" lon="-1.49727">
        <ele>8</ele>
        <time>2018-02-10T15:13:53Z</time>
      </trkpt>
      <trkpt lat="47.43686" lon="-1.49728">
        <ele>8</ele>
        <time>2018-02-10T15:13:54Z</time>
      </trkpt>
      <trkpt lat="47.43678" lon="-1.4973">
        <ele>8</ele>
        <time>2018-02-10T15:13:56Z</time>
      </trkpt>
      <trkpt lat="47.43669" lon="-1.4973">
        <ele>8</ele>
        <time>2018-02-10T15:13:58Z</time>
      </trkpt>
      <trkpt lat="47.43644" lon="-1.49734">
        <ele>8</ele>
        <time>2018-02-10T15:14:04Z</time>
      </trkpt>
      <trkpt lat="47.43624" lon="-1.4975">
        <ele>8</ele>
        <time>2018-02-10T15:14:10Z</time>
      </trkpt>
      <trkpt lat="47.43617" lon="-1.4975">
        <ele>8</ele>
        <time>2018-02-10T15:14:12Z</time>
      </trkpt>
      <trkpt lat="47.43614" lon="-1.49748">
        <ele>8</ele>
        <time>2018-02-10T15:14:13Z</time>
      </trkpt>
      <trkpt lat="47.43598" lon="-1.49726">
        <ele>8</ele>
        <time>2018-02-10T15:14:19Z</time>
      </trkpt>
      <trkpt lat="47.43595" lon="-1.49726">
        <ele>7</ele>
        <time>2018-02-10T15:14:20Z</time>
      </trkpt>
      <trkpt lat="47.43588" lon="-1.4973">
        <ele>7</ele>
        <time>2018-02-10T15:14:22Z</time>
      </trkpt>
      <trkpt lat="47.43573" lon="-1.49741">
        <ele>7</ele>
        <time>2018-02-10T15:14:26Z</time>
      </trkpt>
      <trkpt lat="47.43564" lon="-1.49745">
        <ele>8</ele>
        <time>2018-02-10T15:14:28Z</time>
      </trkpt>
      <trkpt lat="47.43552" lon="-1.49746">
        <ele>8</ele>
        <time>2018-02-10T15:14:31Z</time>
      </trkpt>
      <trkpt lat="47.43548" lon="-1.49746">
        <ele>9</ele>
        <time>2018-02-10T15:14:32Z</time>
      </trkpt>
      <trkpt lat="47.43544" lon="-1.49746">
        <ele>9</ele>
        <time>2018-02-10T15:14:33Z</time>
      </trkpt>
      <trkpt lat="47.43536" lon="-1.49745">
        <ele>9</ele>
        <time>2018-02-10T15:14:35Z</time>
      </trkpt>
      <trkpt lat="47.4352" lon="-1.49735">
        <ele>8</ele>
        <time>2018-02-10T15:14:39Z</time>
      </trkpt>
      <trkpt lat="47.43493" lon="-1.49709">
        <ele>8</ele>
        <time>2018-02-10T15:14:47Z</time>
      </trkpt>
      <trkpt lat="47.43463" lon="-1.49683">
        <ele>9</ele>
        <time>2018-02-10T15:14:55Z</time>
      </trkpt>
      <trkpt lat="47.43454" lon="-1.49671">
        <ele>9</ele>
        <time>2018-02-10T15:14:59Z</time>
      </trkpt>
      <trkpt lat="47.43457" lon="-1.49663">
        <ele>9</ele>
        <time>2018-02-10T15:15:02Z</time>
      </trkpt>
      <trkpt lat="47.43456" lon="-1.49648">
        <ele>9</ele>
        <time>2018-02-10T15:15:05Z</time>
      </trkpt>
      <trkpt lat="47.43455" lon="-1.49643">
        <ele>9</ele>
        <time>2018-02-10T15:15:06Z</time>
      </trkpt>
      <trkpt lat="47.43446" lon="-1.49614">
        <ele>8</ele>
        <time>2018-02-10T15:15:12Z</time>
      </trkpt>
      <trkpt lat="47.43424" lon="-1.49588">
        <ele>8</ele>
        <time>2018-02-10T15:15:20Z</time>
      </trkpt>
      <trkpt lat="47.43399" lon="-1.49561">
        <ele>8</ele>
        <time>2018-02-10T15:15:28Z</time>
      </trkpt>
      <trkpt lat="47.43375" lon="-1.49548">
        <ele>8</ele>
        <time>2018-02-10T15:15:35Z</time>
      </trkpt>
      <trkpt lat="47.43363" lon="-1.49543">
        <ele>8</ele>
        <time>2018-02-10T15:15:39Z</time>
      </trkpt>
      <trkpt lat="47.43356" lon="-1.4954">
        <ele>7</ele>
        <time>2018-02-10T15:15:41Z</time>
      </trkpt>
      <trkpt lat="47.43337" lon="-1.49539">
        <ele>7</ele>
        <time>2018-02-10T15:15:47Z</time>
      </trkpt>
      <trkpt lat="47.43334" lon="-1.49542">
        <ele>8</ele>
        <time>2018-02-10T15:15:48Z</time>
      </trkpt>
      <trkpt lat="47.4333" lon="-1.49551">
        <ele>8</ele>
        <time>2018-02-10T15:15:50Z</time>
      </trkpt>
      <trkpt lat="47.43328" lon="-1.49568">
        <ele>8</ele>
        <time>2018-02-10T15:15:53Z</time>
      </trkpt>
      <trkpt lat="47.43325" lon="-1.49585">
        <ele>8</ele>
        <time>2018-02-10T15:15:56Z</time>
      </trkpt>
      <trkpt lat="47.43317" lon="-1.49626">
        <ele>9</ele>
        <time>2018-02-10T15:16:04Z</time>
      </trkpt>
      <trkpt lat="47.43316" lon="-1.49632">
        <ele>9</ele>
        <time>2018-02-10T15:16:05Z</time>
      </trkpt>
      <trkpt lat="47.43313" lon="-1.49657">
        <ele>10</ele>
        <time>2018-02-10T15:16:10Z</time>
      </trkpt>
      <trkpt lat="47.43312" lon="-1.49662">
        <ele>10</ele>
        <time>2018-02-10T15:16:11Z</time>
      </trkpt>
      <trkpt lat="47.43306" lon="-1.49693">
        <ele>11</ele>
        <time>2018-02-10T15:16:17Z</time>
      </trkpt>
      <trkpt lat="47.43301" lon="-1.49718">
        <ele>11</ele>
        <time>2018-02-10T15:16:22Z</time>
      </trkpt>
      <trkpt lat="47.433" lon="-1.49729">
        <ele>11</ele>
        <time>2018-02-10T15:16:24Z</time>
      </trkpt>
      <trkpt lat="47.43293" lon="-1.49764">
        <ele>11</ele>
        <time>2018-02-10T15:16:31Z</time>
      </trkpt>
      <trkpt lat="47.43291" lon="-1.49767">
        <ele>11</ele>
        <time>2018-02-10T15:16:32Z</time>
      </trkpt>
      <trkpt lat="47.43283" lon="-1.4977">
        <ele>11</ele>
        <time>2018-02-10T15:16:35Z</time>
      </trkpt>
      <trkpt lat="47.43261" lon="-1.49768">
        <ele>12</ele>
        <time>2018-02-10T15:16:41Z</time>
      </trkpt>
      <trkpt lat="47.43229" lon="-1.49768">
        <ele>10</ele>
        <time>2018-02-10T15:16:49Z</time>
      </trkpt>
      <trkpt lat="47.43212" lon="-1.49769">
        <ele>10</ele>
        <time>2018-02-10T15:16:54Z</time>
      </trkpt>
      <trkpt lat="47.43187" lon="-1.49764">
        <ele>10</ele>
        <time>2018-02-10T15:17:00Z</time>
      </trkpt>
      <trkpt lat="47.43157" lon="-1.4976">
        <ele>10</ele>
        <time>2018-02-10T15:17:08Z</time>
      </trkpt>
      <trkpt lat="47.43127" lon="-1.49747">
        <ele>11</ele>
        <time>2018-02-10T15:17:16Z</time>
      </trkpt>
      <trkpt lat="47.43115" lon="-1.4974">
        <ele>11</ele>
        <time>2018-02-10T15:17:21Z</time>
      </trkpt>
      <trkpt lat="47.43108" lon="-1.49722">
        <ele>11</ele>
        <time>2018-02-10T15:17:25Z</time>
      </trkpt>
      <trkpt lat="47.43106" lon="-1.4971">
        <ele>11</ele>
        <time>2018-02-10T15:17:27Z</time>
      </trkpt>
      <trkpt lat="47.43099" lon="-1.49695">
        <ele>11</ele>
        <time>2018-02-10T15:17:30Z</time>
      </trkpt>
      <trkpt lat="47.43089" lon="-1.49692">
        <ele>11</ele>
        <time>2018-02-10T15:17:33Z</time>
      </trkpt>
      <trkpt lat="47.43078" lon="-1.49689">
        <ele>10</ele>
        <time>2018-02-10T15:17:37Z</time>
      </trkpt>
      <trkpt lat="47.43061" lon="-1.49676">
        <ele>10</ele>
        <time>2018-02-10T15:17:42Z</time>
      </trkpt>
      <trkpt lat="47.43055" lon="-1.49669">
        <ele>10</ele>
        <time>2018-02-10T15:17:44Z</time>
      </trkpt>
      <trkpt lat="47.43046" lon="-1.49656">
        <ele>9</ele>
        <time>2018-02-10T15:17:47Z</time>
      </trkpt>
      <trkpt lat="47.43041" lon="-1.49647">
        <ele>9</ele>
        <time>2018-02-10T15:17:49Z</time>
      </trkpt>
      <trkpt lat="47.43034" lon="-1.49639">
        <ele>8</ele>
        <time>2018-02-10T15:17:51Z</time>
      </trkpt>
      <trkpt lat="47.43028" lon="-1.49633">
        <ele>8</ele>
        <time>2018-02-10T15:17:53Z</time>
      </trkpt>
      <trkpt lat="47.4302" lon="-1.49631">
        <ele>8</ele>
        <time>2018-02-10T15:17:55Z</time>
      </trkpt>
      <trkpt lat="47.43003" lon="-1.49628">
        <ele>8</ele>
        <time>2018-02-10T15:18:00Z</time>
      </trkpt>
      <trkpt lat="47.42991" lon="-1.49613">
        <ele>8</ele>
        <time>2018-02-10T15:18:05Z</time>
      </trkpt>
      <trkpt lat="47.42969" lon="-1.49588">
        <ele>8</ele>
        <time>2018-02-10T15:18:12Z</time>
      </trkpt>
      <trkpt lat="47.42949" lon="-1.49566">
        <ele>8</ele>
        <time>2018-02-10T15:18:19Z</time>
      </trkpt>
      <trkpt lat="47.42932" lon="-1.49541">
        <ele>7</ele>
        <time>2018-02-10T15:18:25Z</time>
      </trkpt>
      <trkpt lat="47.42927" lon="-1.49534">
        <ele>7</ele>
        <time>2018-02-10T15:18:27Z</time>
      </trkpt>
      <trkpt lat="47.42922" lon="-1.49525">
        <ele>7</ele>
        <time>2018-02-10T15:18:30Z</time>
      </trkpt>
      <trkpt lat="47.42912" lon="-1.49519">
        <ele>7</ele>
        <time>2018-02-10T15:18:34Z</time>
      </trkpt>
      <trkpt lat="47.42897" lon="-1.49518">
        <ele>7</ele>
        <time>2018-02-10T15:18:39Z</time>
      </trkpt>
      <trkpt lat="47.42895" lon="-1.49516">
        <ele>7</ele>
        <time>2018-02-10T15:18:40Z</time>
      </trkpt>
      <trkpt lat="47.42896" lon="-1.49509">
        <ele>7</ele>
        <time>2018-02-10T15:18:43Z</time>
      </trkpt>
      <trkpt lat="47.42896" lon="-1.49504">
        <ele>6</ele>
        <time>2018-02-10T15:18:45Z</time>
      </trkpt>
      <trkpt lat="47.42892" lon="-1.49499">
        <ele>7</ele>
        <time>2018-02-10T15:18:48Z</time>
      </trkpt>
      <trkpt lat="47.42888" lon="-1.49497">
        <ele>7</ele>
        <time>2018-02-10T15:18:50Z</time>
      </trkpt>
      <trkpt lat="47.42887" lon="-1.49494">
        <ele>7</ele>
        <time>2018-02-10T15:18:51Z</time>
      </trkpt>
      <trkpt lat="47.42883" lon="-1.49487">
        <ele>7</ele>
        <time>2018-02-10T15:18:53Z</time>
      </trkpt>
      <trkpt lat="47.42871" lon="-1.49471">
        <ele>7</ele>
        <time>2018-02-10T15:18:59Z</time>
      </trkpt>
      <trkpt lat="47.42855" lon="-1.49459">
        <ele>7</ele>
        <time>2018-02-10T15:19:05Z</time>
      </trkpt>
      <trkpt lat="47.42835" lon="-1.4945">
        <ele>6</ele>
        <time>2018-02-10T15:19:11Z</time>
      </trkpt>
      <trkpt lat="47.42822" lon="-1.49441">
        <ele>6</ele>
        <time>2018-02-10T15:19:16Z</time>
      </trkpt>
      <trkpt lat="47.42807" lon="-1.49433">
        <ele>6</ele>
        <time>2018-02-10T15:19:22Z</time>
      </trkpt>
      <trkpt lat="47.42802" lon="-1.49428">
        <ele>6</ele>
        <time>2018-02-10T15:19:25Z</time>
      </trkpt>
      <trkpt lat="47.42801" lon="-1.49429">
        <ele>7</ele>
        <time>2018-02-10T15:19:26Z</time>
      </trkpt>
      <trkpt lat="47.42798" lon="-1.4943">
        <ele>7</ele>
        <time>2018-02-10T15:19:28Z</time>
      </trkpt>
      <trkpt lat="47.42787" lon="-1.49425">
        <ele>7</ele>
        <time>2018-02-10T15:19:41Z</time>
      </trkpt>
      <trkpt lat="47.42782" lon="-1.49427">
        <ele>7</ele>
        <time>2018-02-10T15:19:44Z</time>
      </trkpt>
      <trkpt lat="47.42778" lon="-1.49436">
        <ele>7</ele>
        <time>2018-02-10T15:19:50Z</time>
      </trkpt>
      <trkpt lat="47.42774" lon="-1.49456">
        <ele>7</ele>
        <time>2018-02-10T15:19:57Z</time>
      </trkpt>
      <trkpt lat="47.42771" lon="-1.49488">
        <ele>7</ele>
        <time>2018-02-10T15:20:04Z</time>
      </trkpt>
      <trkpt lat="47.42766" lon="-1.49518">
        <ele>7</ele>
        <time>2018-02-10T15:20:11Z</time>
      </trkpt>
      <trkpt lat="47.42763" lon="-1.49541">
        <ele>7</ele>
        <time>2018-02-10T15:20:16Z</time>
      </trkpt>
      <trkpt lat="47.4276" lon="-1.49568">
        <ele>7</ele>
        <time>2018-02-10T15:20:23Z</time>
      </trkpt>
      <trkpt lat="47.4276" lon="-1.49585">
        <ele>8</ele>
        <time>2018-02-10T15:20:28Z</time>
      </trkpt>
      <trkpt lat="47.42761" lon="-1.49601">
        <ele>8</ele>
        <time>2018-02-10T15:20:34Z</time>
      </trkpt>
      <trkpt lat="47.4276" lon="-1.49606">
        <ele>8</ele>
        <time>2018-02-10T15:21:05Z</time>
      </trkpt>
      <trkpt lat="47.4276" lon="-1.49609">
        <ele>8</ele>
        <time>2018-02-10T15:21:06Z</time>
      </trkpt>
      <trkpt lat="47.42754" lon="-1.49638">
        <ele>8</ele>
        <time>2018-02-10T15:21:13Z</time>
      </trkpt>
      <trkpt lat="47.42753" lon="-1.49647">
        <ele>8</ele>
        <time>2018-02-10T15:21:15Z</time>
      </trkpt>
      <trkpt lat="47.42753" lon="-1.49664">
        <ele>8</ele>
        <time>2018-02-10T15:21:19Z</time>
      </trkpt>
      <trkpt lat="47.42755" lon="-1.49701">
        <ele>8</ele>
        <time>2018-02-10T15:21:26Z</time>
      </trkpt>
      <trkpt lat="47.42755" lon="-1.49731">
        <ele>8</ele>
        <time>2018-02-10T15:21:33Z</time>
      </trkpt>
      <trkpt lat="47.4276" lon="-1.49745">
        <ele>8</ele>
        <time>2018-02-10T15:21:37Z</time>
      </trkpt>
      <trkpt lat="47.4276" lon="-1.49748">
        <ele>8</ele>
        <time>2018-02-10T15:21:38Z</time>
      </trkpt>
      <trkpt lat="47.42755" lon="-1.49751">
        <ele>8</ele>
        <time>2018-02-10T15:21:40Z</time>
      </trkpt>
      <trkpt lat="47.42749" lon="-1.49753">
        <ele>8</ele>
        <time>2018-02-10T15:21:42Z</time>
      </trkpt>
      <trkpt lat="47.42743" lon="-1.49755">
        <ele>9</ele>
        <time>2018-02-10T15:21:45Z</time>
      </trkpt>
      <trkpt lat="47.4274" lon="-1.49757">
        <ele>9</ele>
        <time>2018-02-10T15:21:47Z</time>
      </trkpt>
      <trkpt lat="47.4273" lon="-1.49759">
        <ele>10</ele>
        <time>2018-02-10T15:21:50Z</time>
      </trkpt>
      <trkpt lat="47.42709" lon="-1.49757">
        <ele>9</ele>
        <time>2018-02-10T15:21:56Z</time>
      </trkpt>
      <trkpt lat="47.42698" lon="-1.49744">
        <ele>9</ele>
        <time>2018-02-10T15:22:01Z</time>
      </trkpt>
      <trkpt lat="47.42695" lon="-1.49738">
        <ele>9</ele>
        <time>2018-02-10T15:24:38Z</time>
      </trkpt>
      <trkpt lat="47.42686" lon="-1.49731">
        <ele>9</ele>
        <time>2018-02-10T15:24:42Z</time>
      </trkpt>
      <trkpt lat="47.42671" lon="-1.4972">
        <ele>9</ele>
        <time>2018-02-10T15:24:49Z</time>
      </trkpt>
      <trkpt lat="47.42659" lon="-1.49712">
        <ele>9</ele>
        <time>2018-02-10T15:24:54Z</time>
      </trkpt>
      <trkpt lat="47.42644" lon="-1.49699">
        <ele>9</ele>
        <time>2018-02-10T15:25:01Z</time>
      </trkpt>
      <trkpt lat="47.42631" lon="-1.49687">
        <ele>9</ele>
        <time>2018-02-10T15:25:08Z</time>
      </trkpt>
      <trkpt lat="47.42618" lon="-1.49673">
        <ele>9</ele>
        <time>2018-02-10T15:25:15Z</time>
      </trkpt>
      <trkpt lat="47.42612" lon="-1.49671">
        <ele>9</ele>
        <time>2018-02-10T15:25:17Z</time>
      </trkpt>
      <trkpt lat="47.42601" lon="-1.49673">
        <ele>9</ele>
        <time>2018-02-10T15:25:20Z</time>
      </trkpt>
      <trkpt lat="47.42589" lon="-1.49686">
        <ele>8</ele>
        <time>2018-02-10T15:25:25Z</time>
      </trkpt>
      <trkpt lat="47.42581" lon="-1.49703">
        <ele>8</ele>
        <time>2018-02-10T15:25:30Z</time>
      </trkpt>
      <trkpt lat="47.4258" lon="-1.49707">
        <ele>8</ele>
        <time>2018-02-10T15:25:31Z</time>
      </trkpt>
      <trkpt lat="47.42579" lon="-1.49726">
        <ele>9</ele>
        <time>2018-02-10T15:25:36Z</time>
      </trkpt>
      <trkpt lat="47.42575" lon="-1.49751">
        <ele>9</ele>
        <time>2018-02-10T15:25:43Z</time>
      </trkpt>
      <trkpt lat="47.4257" lon="-1.49763">
        <ele>9</ele>
        <time>2018-02-10T15:25:47Z</time>
      </trkpt>
      <trkpt lat="47.42569" lon="-1.49763">
        <ele>9</ele>
        <time>2018-02-10T15:25:48Z</time>
      </trkpt>
      <trkpt lat="47.42556" lon="-1.49756">
        <ele>9</ele>
        <time>2018-02-10T15:25:52Z</time>
      </trkpt>
      <trkpt lat="47.42538" lon="-1.49746">
        <ele>10</ele>
        <time>2018-02-10T15:25:58Z</time>
      </trkpt>
      <trkpt lat="47.42515" lon="-1.49734">
        <ele>10</ele>
        <time>2018-02-10T15:26:05Z</time>
      </trkpt>
      <trkpt lat="47.42496" lon="-1.49726">
        <ele>10</ele>
        <time>2018-02-10T15:26:11Z</time>
      </trkpt>
      <trkpt lat="47.42493" lon="-1.49725">
        <ele>10</ele>
        <time>2018-02-10T15:26:12Z</time>
      </trkpt>
      <trkpt lat="47.42475" lon="-1.49716">
        <ele>10</ele>
        <time>2018-02-10T15:26:17Z</time>
      </trkpt>
      <trkpt lat="47.42455" lon="-1.49706">
        <ele>10</ele>
        <time>2018-02-10T15:26:22Z</time>
      </trkpt>
      <trkpt lat="47.4245" lon="-1.49704">
        <ele>10</ele>
        <time>2018-02-10T15:26:23Z</time>
      </trkpt>
      <trkpt lat="47.42427" lon="-1.49695">
        <ele>10</ele>
        <time>2018-02-10T15:26:28Z</time>
      </trkpt>
      <trkpt lat="47.42393" lon="-1.49678">
        <ele>10</ele>
        <time>2018-02-10T15:26:35Z</time>
      </trkpt>
      <trkpt lat="47.42381" lon="-1.4967">
        <ele>10</ele>
        <time>2018-02-10T15:26:38Z</time>
      </trkpt>
      <trkpt lat="47.42368" lon="-1.49663">
        <ele>10</ele>
        <time>2018-02-10T15:26:41Z</time>
      </trkpt>
      <trkpt lat="47.42336" lon="-1.49649">
        <ele>10</ele>
        <time>2018-02-10T15:26:48Z</time>
      </trkpt>
      <trkpt lat="47.42316" lon="-1.49646">
        <ele>10</ele>
        <time>2018-02-10T15:26:53Z</time>
      </trkpt>
      <trkpt lat="47.42303" lon="-1.49647">
        <ele>11</ele>
        <time>2018-02-10T15:26:58Z</time>
      </trkpt>
      <trkpt lat="47.42294" lon="-1.49646">
        <ele>11</ele>
        <time>2018-02-10T15:27:08Z</time>
      </trkpt>
      <trkpt lat="47.42277" lon="-1.49641">
        <ele>11</ele>
        <time>2018-02-10T15:27:14Z</time>
      </trkpt>
      <trkpt lat="47.42249" lon="-1.49631">
        <ele>11</ele>
        <time>2018-02-10T15:27:21Z</time>
      </trkpt>
      <trkpt lat="47.42216" lon="-1.4962">
        <ele>11</ele>
        <time>2018-02-10T15:27:28Z</time>
      </trkpt>
      <trkpt lat="47.42187" lon="-1.49619">
        <ele>11</ele>
        <time>2018-02-10T15:27:34Z</time>
      </trkpt>
      <trkpt lat="47.42183" lon="-1.4962">
        <ele>11</ele>
        <time>2018-02-10T15:27:35Z</time>
      </trkpt>
      <trkpt lat="47.42152" lon="-1.49634">
        <ele>11</ele>
        <time>2018-02-10T15:27:42Z</time>
      </trkpt>
      <trkpt lat="47.42148" lon="-1.49636">
        <ele>11</ele>
        <time>2018-02-10T15:27:43Z</time>
      </trkpt>
      <trkpt lat="47.42122" lon="-1.49648">
        <ele>11</ele>
        <time>2018-02-10T15:27:49Z</time>
      </trkpt>
      <trkpt lat="47.42117" lon="-1.4965">
        <ele>11</ele>
        <time>2018-02-10T15:27:50Z</time>
      </trkpt>
      <trkpt lat="47.42104" lon="-1.49657">
        <ele>12</ele>
        <time>2018-02-10T15:27:53Z</time>
      </trkpt>
      <trkpt lat="47.42081" lon="-1.49666">
        <ele>12</ele>
        <time>2018-02-10T15:27:58Z</time>
      </trkpt>
      <trkpt lat="47.42067" lon="-1.49671">
        <ele>12</ele>
        <time>2018-02-10T15:28:01Z</time>
      </trkpt>
      <trkpt lat="47.42051" lon="-1.49677">
        <ele>12</ele>
        <time>2018-02-10T15:28:04Z</time>
      </trkpt>
      <trkpt lat="47.42023" lon="-1.49692">
        <ele>12</ele>
        <time>2018-02-10T15:28:09Z</time>
      </trkpt>
      <trkpt lat="47.42011" lon="-1.497">
        <ele>13</ele>
        <time>2018-02-10T15:28:11Z</time>
      </trkpt>
      <trkpt lat="47.42001" lon="-1.49707">
        <ele>13</ele>
        <time>2018-02-10T15:28:13Z</time>
      </trkpt>
      <trkpt lat="47.41993" lon="-1.49713">
        <ele>12</ele>
        <time>2018-02-10T15:28:15Z</time>
      </trkpt>
      <trkpt lat="47.4197" lon="-1.49728">
        <ele>12</ele>
        <time>2018-02-10T15:28:20Z</time>
      </trkpt>
      <trkpt lat="47.41965" lon="-1.49729">
        <ele>12</ele>
        <time>2018-02-10T15:28:21Z</time>
      </trkpt>
      <trkpt lat="47.41955" lon="-1.49733">
        <ele>12</ele>
        <time>2018-02-10T15:28:23Z</time>
      </trkpt>
      <trkpt lat="47.41938" lon="-1.49735">
        <ele>12</ele>
        <time>2018-02-10T15:28:27Z</time>
      </trkpt>
      <trkpt lat="47.41916" lon="-1.49733">
        <ele>11</ele>
        <time>2018-02-10T15:28:32Z</time>
      </trkpt>
      <trkpt lat="47.41904" lon="-1.49729">
        <ele>12</ele>
        <time>2018-02-10T15:28:35Z</time>
      </trkpt>
      <trkpt lat="47.41879" lon="-1.49719">
        <ele>12</ele>
        <time>2018-02-10T15:28:41Z</time>
      </trkpt>
      <trkpt lat="47.41849" lon="-1.49705">
        <ele>12</ele>
        <time>2018-02-10T15:28:47Z</time>
      </trkpt>
      <trkpt lat="47.41844" lon="-1.49702">
        <ele>12</ele>
        <time>2018-02-10T15:28:48Z</time>
      </trkpt>
      <trkpt lat="47.41834" lon="-1.49687">
        <ele>12</ele>
        <time>2018-02-10T15:28:51Z</time>
      </trkpt>
      <trkpt lat="47.41828" lon="-1.49672">
        <ele>11</ele>
        <time>2018-02-10T15:28:54Z</time>
      </trkpt>
      <trkpt lat="47.41824" lon="-1.49662">
        <ele>11</ele>
        <time>2018-02-10T15:28:56Z</time>
      </trkpt>
      <trkpt lat="47.41819" lon="-1.49652">
        <ele>11</ele>
        <time>2018-02-10T15:28:58Z</time>
      </trkpt>
      <trkpt lat="47.41812" lon="-1.49646">
        <ele>11</ele>
        <time>2018-02-10T15:29:00Z</time>
      </trkpt>
      <trkpt lat="47.41788" lon="-1.49643">
        <ele>12</ele>
        <time>2018-02-10T15:29:05Z</time>
      </trkpt>
      <trkpt lat="47.41783" lon="-1.49644">
        <ele>12</ele>
        <time>2018-02-10T15:29:06Z</time>
      </trkpt>
      <trkpt lat="47.41774" lon="-1.49647">
        <ele>12</ele>
        <time>2018-02-10T15:29:09Z</time>
      </trkpt>
      <trkpt lat="47.4177" lon="-1.49652">
        <ele>11</ele>
        <time>2018-02-10T15:29:21Z</time>
      </trkpt>
      <trkpt lat="47.41767" lon="-1.4966">
        <ele>11</ele>
        <time>2018-02-10T15:29:24Z</time>
      </trkpt>
      <trkpt lat="47.41768" lon="-1.49684">
        <ele>11</ele>
        <time>2018-02-10T15:29:29Z</time>
      </trkpt>
      <trkpt lat="47.41767" lon="-1.49712">
        <ele>11</ele>
        <time>2018-02-10T15:29:34Z</time>
      </trkpt>
      <trkpt lat="47.41765" lon="-1.49764">
        <ele>11</ele>
        <time>2018-02-10T15:29:41Z</time>
      </trkpt>
      <trkpt lat="47.41759" lon="-1.4982">
        <ele>12</ele>
        <time>2018-02-10T15:29:47Z</time>
      </trkpt>
      <trkpt lat="47.41749" lon="-1.49876">
        <ele>12</ele>
        <time>2018-02-10T15:29:53Z</time>
      </trkpt>
      <trkpt lat="47.41746" lon="-1.49917">
        <ele>12</ele>
        <time>2018-02-10T15:29:59Z</time>
      </trkpt>
      <trkpt lat="47.41744" lon="-1.49942">
        <ele>12</ele>
        <time>2018-02-10T15:30:05Z</time>
      </trkpt>
      <trkpt lat="47.41741" lon="-1.49949">
        <ele>12</ele>
        <time>2018-02-10T15:30:41Z</time>
      </trkpt>
      <trkpt lat="47.41729" lon="-1.49951">
        <ele>11</ele>
        <time>2018-02-10T15:30:45Z</time>
      </trkpt>
      <trkpt lat="47.41725" lon="-1.4995">
        <ele>11</ele>
        <time>2018-02-10T15:30:46Z</time>
      </trkpt>
      <trkpt lat="47.41701" lon="-1.49947">
        <ele>11</ele>
        <time>2018-02-10T15:30:51Z</time>
      </trkpt>
      <trkpt lat="47.41648" lon="-1.49934">
        <ele>11</ele>
        <time>2018-02-10T15:31:01Z</time>
      </trkpt>
      <trkpt lat="47.41605" lon="-1.49924">
        <ele>11</ele>
        <time>2018-02-10T15:31:09Z</time>
      </trkpt>
      <trkpt lat="47.41568" lon="-1.49915">
        <ele>11</ele>
        <time>2018-02-10T15:31:17Z</time>
      </trkpt>
      <trkpt lat="47.41564" lon="-1.49915">
        <ele>11</ele>
        <time>2018-02-10T15:31:18Z</time>
      </trkpt>
      <trkpt lat="47.41559" lon="-1.4992">
        <ele>11</ele>
        <time>2018-02-10T15:31:20Z</time>
      </trkpt>
      <trkpt lat="47.41558" lon="-1.49934">
        <ele>11</ele>
        <time>2018-02-10T15:31:23Z</time>
      </trkpt>
      <trkpt lat="47.41558" lon="-1.4994">
        <ele>11</ele>
        <time>2018-02-10T15:31:24Z</time>
      </trkpt>
      <trkpt lat="47.41557" lon="-1.49979">
        <ele>11</ele>
        <time>2018-02-10T15:31:30Z</time>
      </trkpt>
      <trkpt lat="47.41555" lon="-1.50034">
        <ele>11</ele>
        <time>2018-02-10T15:31:37Z</time>
      </trkpt>
      <trkpt lat="47.41552" lon="-1.501">
        <ele>10</ele>
        <time>2018-02-10T15:31:46Z</time>
      </trkpt>
      <trkpt lat="47.41552" lon="-1.50107">
        <ele>10</ele>
        <time>2018-02-10T15:31:47Z</time>
      </trkpt>
      <trkpt lat="47.41548" lon="-1.50154">
        <ele>10</ele>
        <time>2018-02-10T15:31:55Z</time>
      </trkpt>
      <trkpt lat="47.41546" lon="-1.5016">
        <ele>10</ele>
        <time>2018-02-10T15:31:57Z</time>
      </trkpt>
      <trkpt lat="47.41542" lon="-1.50164">
        <ele>10</ele>
        <time>2018-02-10T15:31:59Z</time>
      </trkpt>
      <trkpt lat="47.41533" lon="-1.50168">
        <ele>9</ele>
        <time>2018-02-10T15:32:02Z</time>
      </trkpt>
      <trkpt lat="47.41529" lon="-1.50169">
        <ele>9</ele>
        <time>2018-02-10T15:32:03Z</time>
      </trkpt>
      <trkpt lat="47.41522" lon="-1.50172">
        <ele>9</ele>
        <time>2018-02-10T15:32:05Z</time>
      </trkpt>
      <trkpt lat="47.41491" lon="-1.50188">
        <ele>9</ele>
        <time>2018-02-10T15:32:13Z</time>
      </trkpt>
      <trkpt lat="47.41465" lon="-1.502">
        <ele>9</ele>
        <time>2018-02-10T15:32:20Z</time>
      </trkpt>
      <trkpt lat="47.41443" lon="-1.50211">
        <ele>9</ele>
        <time>2018-02-10T15:32:26Z</time>
      </trkpt>
      <trkpt lat="47.41421" lon="-1.50222">
        <ele>9</ele>
        <time>2018-02-10T15:32:33Z</time>
      </trkpt>
      <trkpt lat="47.41403" lon="-1.50231">
        <ele>9</ele>
        <time>2018-02-10T15:32:40Z</time>
      </trkpt>
      <trkpt lat="47.41401" lon="-1.5023">
        <ele>9</ele>
        <time>2018-02-10T15:32:41Z</time>
      </trkpt>
      <trkpt lat="47.41398" lon="-1.50223">
        <ele>9</ele>
        <time>2018-02-10T15:32:44Z</time>
      </trkpt>
      <trkpt lat="47.41396" lon="-1.50215">
        <ele>9</ele>
        <time>2018-02-10T15:32:46Z</time>
      </trkpt>
      <trkpt lat="47.41393" lon="-1.50199">
        <ele>9</ele>
        <time>2018-02-10T15:32:49Z</time>
      </trkpt>
      <trkpt lat="47.41385" lon="-1.50162">
        <ele>8</ele>
        <time>2018-02-10T15:32:56Z</time>
      </trkpt>
      <trkpt lat="47.41379" lon="-1.50132">
        <ele>8</ele>
        <time>2018-02-10T15:33:02Z</time>
      </trkpt>
      <trkpt lat="47.41373" lon="-1.50099">
        <ele>8</ele>
        <time>2018-02-10T15:33:09Z</time>
      </trkpt>
      <trkpt lat="47.41366" lon="-1.50061">
        <ele>9</ele>
        <time>2018-02-10T15:33:17Z</time>
      </trkpt>
      <trkpt lat="47.41361" lon="-1.50039">
        <ele>10</ele>
        <time>2018-02-10T15:33:23Z</time>
      </trkpt>
      <trkpt lat="47.41356" lon="-1.50028">
        <ele>9</ele>
        <time>2018-02-10T15:33:27Z</time>
      </trkpt>
      <trkpt lat="47.41354" lon="-1.50028">
        <ele>9</ele>
        <time>2018-02-10T15:33:28Z</time>
      </trkpt>
      <trkpt lat="47.41339" lon="-1.50029">
        <ele>9</ele>
        <time>2018-02-10T15:33:33Z</time>
      </trkpt>
      <trkpt lat="47.41319" lon="-1.5003">
        <ele>9</ele>
        <time>2018-02-10T15:33:40Z</time>
      </trkpt>
      <trkpt lat="47.41297" lon="-1.50039">
        <ele>10</ele>
        <time>2018-02-10T15:33:46Z</time>
      </trkpt>
      <trkpt lat="47.41264" lon="-1.50051">
        <ele>10</ele>
        <time>2018-02-10T15:33:56Z</time>
      </trkpt>
      <trkpt lat="47.41234" lon="-1.50064">
        <ele>10</ele>
        <time>2018-02-10T15:34:04Z</time>
      </trkpt>
      <trkpt lat="47.41206" lon="-1.50076">
        <ele>9</ele>
        <time>2018-02-10T15:34:12Z</time>
      </trkpt>
      <trkpt lat="47.41184" lon="-1.50092">
        <ele>9</ele>
        <time>2018-02-10T15:34:19Z</time>
      </trkpt>
      <trkpt lat="47.41161" lon="-1.50114">
        <ele>9</ele>
        <time>2018-02-10T15:34:26Z</time>
      </trkpt>
      <trkpt lat="47.41138" lon="-1.50128">
        <ele>9</ele>
        <time>2018-02-10T15:34:33Z</time>
      </trkpt>
      <trkpt lat="47.411" lon="-1.50143">
        <ele>9</ele>
        <time>2018-02-10T15:34:44Z</time>
      </trkpt>
      <trkpt lat="47.4107" lon="-1.50154">
        <ele>10</ele>
        <time>2018-02-10T15:34:52Z</time>
      </trkpt>
      <trkpt lat="47.4104" lon="-1.50157">
        <ele>10</ele>
        <time>2018-02-10T15:34:59Z</time>
      </trkpt>
      <trkpt lat="47.41012" lon="-1.50154">
        <ele>10</ele>
        <time>2018-02-10T15:35:06Z</time>
      </trkpt>
      <trkpt lat="47.40995" lon="-1.50145">
        <ele>10</ele>
        <time>2018-02-10T15:35:10Z</time>
      </trkpt>
      <trkpt lat="47.40992" lon="-1.50142">
        <ele>10</ele>
        <time>2018-02-10T15:35:11Z</time>
      </trkpt>
      <trkpt lat="47.4097" lon="-1.50119">
        <ele>9</ele>
        <time>2018-02-10T15:35:18Z</time>
      </trkpt>
      <trkpt lat="47.40944" lon="-1.50091">
        <ele>9</ele>
        <time>2018-02-10T15:35:26Z</time>
      </trkpt>
      <trkpt lat="47.40918" lon="-1.50066">
        <ele>9</ele>
        <time>2018-02-10T15:35:33Z</time>
      </trkpt>
      <trkpt lat="47.40899" lon="-1.50051">
        <ele>10</ele>
        <time>2018-02-10T15:35:39Z</time>
      </trkpt>
      <trkpt lat="47.40879" lon="-1.50033">
        <ele>10</ele>
        <time>2018-02-10T15:35:46Z</time>
      </trkpt>
      <trkpt lat="47.4087" lon="-1.50024">
        <ele>10</ele>
        <time>2018-02-10T15:35:51Z</time>
      </trkpt>
      <trkpt lat="47.40858" lon="-1.50022">
        <ele>10</ele>
        <time>2018-02-10T15:35:57Z</time>
      </trkpt>
      <trkpt lat="47.40852" lon="-1.50021">
        <ele>10</ele>
        <time>2018-02-10T15:35:59Z</time>
      </trkpt>
      <trkpt lat="47.40838" lon="-1.50019">
        <ele>10</ele>
        <time>2018-02-10T15:36:03Z</time>
      </trkpt>
      <trkpt lat="47.40816" lon="-1.50022">
        <ele>10</ele>
        <time>2018-02-10T15:36:09Z</time>
      </trkpt>
      <trkpt lat="47.40786" lon="-1.50027">
        <ele>10</ele>
        <time>2018-02-10T15:36:17Z</time>
      </trkpt>
      <trkpt lat="47.40755" lon="-1.50036">
        <ele>10</ele>
        <time>2018-02-10T15:36:25Z</time>
      </trkpt>
      <trkpt lat="47.40727" lon="-1.50046">
        <ele>10</ele>
        <time>2018-02-10T15:36:32Z</time>
      </trkpt>
      <trkpt lat="47.40699" lon="-1.50058">
        <ele>10</ele>
        <time>2018-02-10T15:36:39Z</time>
      </trkpt>
      <trkpt lat="47.40674" lon="-1.50072">
        <ele>10</ele>
        <time>2018-02-10T15:36:46Z</time>
      </trkpt>
      <trkpt lat="47.40653" lon="-1.50079">
        <ele>9</ele>
        <time>2018-02-10T15:36:53Z</time>
      </trkpt>
      <trkpt lat="47.40649" lon="-1.50087">
        <ele>10</ele>
        <time>2018-02-10T15:38:30Z</time>
      </trkpt>
      <trkpt lat="47.40648" lon="-1.50095">
        <ele>10</ele>
        <time>2018-02-10T15:38:33Z</time>
      </trkpt>
      <trkpt lat="47.40647" lon="-1.50099">
        <ele>10</ele>
        <time>2018-02-10T15:38:34Z</time>
      </trkpt>
      <trkpt lat="47.40644" lon="-1.5012">
        <ele>10</ele>
        <time>2018-02-10T15:38:39Z</time>
      </trkpt>
      <trkpt lat="47.40639" lon="-1.50155">
        <ele>10</ele>
        <time>2018-02-10T15:38:45Z</time>
      </trkpt>
      <trkpt lat="47.40632" lon="-1.50196">
        <ele>10</ele>
        <time>2018-02-10T15:38:52Z</time>
      </trkpt>
      <trkpt lat="47.40626" lon="-1.50231">
        <ele>10</ele>
        <time>2018-02-10T15:38:58Z</time>
      </trkpt>
      <trkpt lat="47.40621" lon="-1.50262">
        <ele>10</ele>
        <time>2018-02-10T15:39:04Z</time>
      </trkpt>
      <trkpt lat="47.40611" lon="-1.50302">
        <ele>10</ele>
        <time>2018-02-10T15:39:11Z</time>
      </trkpt>
      <trkpt lat="47.40603" lon="-1.50335">
        <ele>11</ele>
        <time>2018-02-10T15:39:17Z</time>
      </trkpt>
      <trkpt lat="47.40603" lon="-1.50348">
        <ele>11</ele>
        <time>2018-02-10T15:39:19Z</time>
      </trkpt>
      <trkpt lat="47.40604" lon="-1.50374">
        <ele>11</ele>
        <time>2018-02-10T15:39:23Z</time>
      </trkpt>
      <trkpt lat="47.40608" lon="-1.5042">
        <ele>11</ele>
        <time>2018-02-10T15:39:31Z</time>
      </trkpt>
      <trkpt lat="47.40613" lon="-1.50469">
        <ele>11</ele>
        <time>2018-02-10T15:39:39Z</time>
      </trkpt>
      <trkpt lat="47.40622" lon="-1.505">
        <ele>11</ele>
        <time>2018-02-10T15:39:45Z</time>
      </trkpt>
      <trkpt lat="47.4063" lon="-1.50512">
        <ele>11</ele>
        <time>2018-02-10T15:39:48Z</time>
      </trkpt>
      <trkpt lat="47.40641" lon="-1.50523">
        <ele>10</ele>
        <time>2018-02-10T15:39:51Z</time>
      </trkpt>
      <trkpt lat="47.40645" lon="-1.50527">
        <ele>10</ele>
        <time>2018-02-10T15:39:52Z</time>
      </trkpt>
      <trkpt lat="47.40654" lon="-1.50548">
        <ele>10</ele>
        <time>2018-02-10T15:39:56Z</time>
      </trkpt>
      <trkpt lat="47.40661" lon="-1.50592">
        <ele>10</ele>
        <time>2018-02-10T15:40:03Z</time>
      </trkpt>
      <trkpt lat="47.40663" lon="-1.5061">
        <ele>9</ele>
        <time>2018-02-10T15:40:08Z</time>
      </trkpt>
      <trkpt lat="47.40662" lon="-1.50612">
        <ele>9</ele>
        <time>2018-02-10T15:40:09Z</time>
      </trkpt>
      <trkpt lat="47.40661" lon="-1.50616">
        <ele>9</ele>
        <time>2018-02-10T15:40:11Z</time>
      </trkpt>
      <trkpt lat="47.40659" lon="-1.50618">
        <ele>9</ele>
        <time>2018-02-10T15:40:13Z</time>
      </trkpt>
      <trkpt lat="47.40649" lon="-1.50624">
        <ele>8</ele>
        <time>2018-02-10T15:40:19Z</time>
      </trkpt>
      <trkpt lat="47.40631" lon="-1.50633">
        <ele>9</ele>
        <time>2018-02-10T15:40:27Z</time>
      </trkpt>
      <trkpt lat="47.40617" lon="-1.5064">
        <ele>9</ele>
        <time>2018-02-10T15:40:34Z</time>
      </trkpt>
      <trkpt lat="47.406" lon="-1.50649">
        <ele>9</ele>
        <time>2018-02-10T15:40:40Z</time>
      </trkpt>
      <trkpt lat="47.40583" lon="-1.50658">
        <ele>9</ele>
        <time>2018-02-10T15:40:47Z</time>
      </trkpt>
      <trkpt lat="47.40565" lon="-1.50669">
        <ele>9</ele>
        <time>2018-02-10T15:40:54Z</time>
      </trkpt>
      <trkpt lat="47.40551" lon="-1.50676">
        <ele>9</ele>
        <time>2018-02-10T15:41:01Z</time>
      </trkpt>
      <trkpt lat="47.40544" lon="-1.50682">
        <ele>9</ele>
        <time>2018-02-10T15:41:52Z</time>
      </trkpt>
      <trkpt lat="47.40542" lon="-1.50683">
        <ele>9</ele>
        <time>2018-02-10T15:41:53Z</time>
      </trkpt>
      <trkpt lat="47.40521" lon="-1.50693">
        <ele>9</ele>
        <time>2018-02-10T15:42:00Z</time>
      </trkpt>
      <trkpt lat="47.40496" lon="-1.50704">
        <ele>9</ele>
        <time>2018-02-10T15:42:08Z</time>
      </trkpt>
      <trkpt lat="47.40471" lon="-1.50717">
        <ele>9</ele>
        <time>2018-02-10T15:42:16Z</time>
      </trkpt>
      <trkpt lat="47.40445" lon="-1.50726">
        <ele>9</ele>
        <time>2018-02-10T15:42:24Z</time>
      </trkpt>
      <trkpt lat="47.40428" lon="-1.50737">
        <ele>9</ele>
        <time>2018-02-10T15:42:30Z</time>
      </trkpt>
      <trkpt lat="47.40404" lon="-1.50749">
        <ele>9</ele>
        <time>2018-02-10T15:42:38Z</time>
      </trkpt>
      <trkpt lat="47.40383" lon="-1.50761">
        <ele>9</ele>
        <time>2018-02-10T15:42:45Z</time>
      </trkpt>
      <trkpt lat="47.40357" lon="-1.50774">
        <ele>10</ele>
        <time>2018-02-10T15:42:54Z</time>
      </trkpt>
      <trkpt lat="47.40336" lon="-1.50784">
        <ele>9</ele>
        <time>2018-02-10T15:43:02Z</time>
      </trkpt>
      <trkpt lat="47.4031" lon="-1.50798">
        <ele>9</ele>
        <time>2018-02-10T15:43:11Z</time>
      </trkpt>
      <trkpt lat="47.40284" lon="-1.50813">
        <ele>9</ele>
        <time>2018-02-10T15:43:21Z</time>
      </trkpt>
      <trkpt lat="47.40266" lon="-1.50824">
        <ele>9</ele>
        <time>2018-02-10T15:43:28Z</time>
      </trkpt>
      <trkpt lat="47.4025" lon="-1.50833">
        <ele>9</ele>
        <time>2018-02-10T15:43:34Z</time>
      </trkpt>
      <trkpt lat="47.40233" lon="-1.50841">
        <ele>9</ele>
        <time>2018-02-10T15:43:41Z</time>
      </trkpt>
      <trkpt lat="47.40214" lon="-1.50851">
        <ele>10</ele>
        <time>2018-02-10T15:43:48Z</time>
      </trkpt>
      <trkpt lat="47.40196" lon="-1.5086">
        <ele>10</ele>
        <time>2018-02-10T15:43:56Z</time>
      </trkpt>
      <trkpt lat="47.40182" lon="-1.5087">
        <ele>10</ele>
        <time>2018-02-10T15:44:03Z</time>
      </trkpt>
      <trkpt lat="47.40168" lon="-1.50877">
        <ele>10</ele>
        <time>2018-02-10T15:44:10Z</time>
      </trkpt>
      <trkpt lat="47.40153" lon="-1.50878">
        <ele>10</ele>
        <time>2018-02-10T15:44:17Z</time>
      </trkpt>
      <trkpt lat="47.40145" lon="-1.50867">
        <ele>10</ele>
        <time>2018-02-10T15:44:23Z</time>
      </trkpt>
      <trkpt lat="47.4014" lon="-1.50853">
        <ele>9</ele>
        <time>2018-02-10T15:44:29Z</time>
      </trkpt>
      <trkpt lat="47.40135" lon="-1.50835">
        <ele>9</ele>
        <time>2018-02-10T15:44:36Z</time>
      </trkpt>
      <trkpt lat="47.40133" lon="-1.50823">
        <ele>10</ele>
        <time>2018-02-10T15:44:42Z</time>
      </trkpt>
      <trkpt lat="47.40128" lon="-1.50808">
        <ele>10</ele>
        <time>2018-02-10T15:44:47Z</time>
      </trkpt>
      <trkpt lat="47.40124" lon="-1.5079">
        <ele>9</ele>
        <time>2018-02-10T15:44:53Z</time>
      </trkpt>
      <trkpt lat="47.40118" lon="-1.50767">
        <ele>10</ele>
        <time>2018-02-10T15:44:59Z</time>
      </trkpt>
      <trkpt lat="47.40107" lon="-1.50736">
        <ele>10</ele>
        <time>2018-02-10T15:45:07Z</time>
      </trkpt>
      <trkpt lat="47.40098" lon="-1.50706">
        <ele>10</ele>
        <time>2018-02-10T15:45:15Z</time>
      </trkpt>
      <trkpt lat="47.40085" lon="-1.50668">
        <ele>10</ele>
        <time>2018-02-10T15:45:25Z</time>
      </trkpt>
      <trkpt lat="47.40079" lon="-1.50645">
        <ele>10</ele>
        <time>2018-02-10T15:45:32Z</time>
      </trkpt>
      <trkpt lat="47.40072" lon="-1.50626">
        <ele>10</ele>
        <time>2018-02-10T15:45:38Z</time>
      </trkpt>
      <trkpt lat="47.40065" lon="-1.50601">
        <ele>10</ele>
        <time>2018-02-10T15:45:46Z</time>
      </trkpt>
      <trkpt lat="47.40058" lon="-1.50573">
        <ele>10</ele>
        <time>2018-02-10T15:45:54Z</time>
      </trkpt>
      <trkpt lat="47.40049" lon="-1.5055">
        <ele>10</ele>
        <time>2018-02-10T15:46:01Z</time>
      </trkpt>
      <trkpt lat="47.40041" lon="-1.50523">
        <ele>10</ele>
        <time>2018-02-10T15:46:08Z</time>
      </trkpt>
      <trkpt lat="47.4004" lon="-1.50519">
        <ele>10</ele>
        <time>2018-02-10T15:46:09Z</time>
      </trkpt>
      <trkpt lat="47.40032" lon="-1.50502">
        <ele>10</ele>
        <time>2018-02-10T15:46:15Z</time>
      </trkpt>
      <trkpt lat="47.40031" lon="-1.50502">
        <ele>10</ele>
        <time>2018-02-10T15:46:16Z</time>
      </trkpt>
      <trkpt lat="47.40024" lon="-1.5051">
        <ele>11</ele>
        <time>2018-02-10T15:46:20Z</time>
      </trkpt>
      <trkpt lat="47.40017" lon="-1.50524">
        <ele>11</ele>
        <time>2018-02-10T15:46:26Z</time>
      </trkpt>
      <trkpt lat="47.40014" lon="-1.50529">
        <ele>11</ele>
        <time>2018-02-10T15:46:29Z</time>
      </trkpt>
      <trkpt lat="47.40013" lon="-1.50533">
        <ele>11</ele>
        <time>2018-02-10T15:48:49Z</time>
      </trkpt>
      <trkpt lat="47.40004" lon="-1.50545">
        <ele>12</ele>
        <time>2018-02-10T15:48:55Z</time>
      </trkpt>
      <trkpt lat="47.3999" lon="-1.50571">
        <ele>12</ele>
        <time>2018-02-10T15:49:01Z</time>
      </trkpt>
      <trkpt lat="47.39978" lon="-1.50592">
        <ele>12</ele>
        <time>2018-02-10T15:49:07Z</time>
      </trkpt>
      <trkpt lat="47.39957" lon="-1.50616">
        <ele>12</ele>
        <time>2018-02-10T15:49:14Z</time>
      </trkpt>
      <trkpt lat="47.39945" lon="-1.50622">
        <ele>12</ele>
        <time>2018-02-10T15:49:17Z</time>
      </trkpt>
      <trkpt lat="47.39937" lon="-1.50625">
        <ele>12</ele>
        <time>2018-02-10T15:49:19Z</time>
      </trkpt>
      <trkpt lat="47.39932" lon="-1.50627">
        <ele>12</ele>
        <time>2018-02-10T15:49:20Z</time>
      </trkpt>
      <trkpt lat="47.39907" lon="-1.50636">
        <ele>11</ele>
        <time>2018-02-10T15:49:26Z</time>
      </trkpt>
      <trkpt lat="47.39904" lon="-1.50638">
        <ele>11</ele>
        <time>2018-02-10T15:49:27Z</time>
      </trkpt>
      <trkpt lat="47.39892" lon="-1.50654">
        <ele>11</ele>
        <time>2018-02-10T15:49:31Z</time>
      </trkpt>
      <trkpt lat="47.3989" lon="-1.50659">
        <ele>11</ele>
        <time>2018-02-10T15:49:32Z</time>
      </trkpt>
      <trkpt lat="47.39888" lon="-1.50665">
        <ele>11</ele>
        <time>2018-02-10T15:49:33Z</time>
      </trkpt>
      <trkpt lat="47.39879" lon="-1.50687">
        <ele>11</ele>
        <time>2018-02-10T15:49:37Z</time>
      </trkpt>
      <trkpt lat="47.39865" lon="-1.50716">
        <ele>11</ele>
        <time>2018-02-10T15:49:43Z</time>
      </trkpt>
      <trkpt lat="47.39853" lon="-1.50741">
        <ele>11</ele>
        <time>2018-02-10T15:49:48Z</time>
      </trkpt>
      <trkpt lat="47.39841" lon="-1.50773">
        <ele>11</ele>
        <time>2018-02-10T15:49:55Z</time>
      </trkpt>
      <trkpt lat="47.39833" lon="-1.50792">
        <ele>11</ele>
        <time>2018-02-10T15:50:01Z</time>
      </trkpt>
      <trkpt lat="47.39826" lon="-1.50804">
        <ele>11</ele>
        <time>2018-02-10T15:50:07Z</time>
      </trkpt>
      <trkpt lat="47.39818" lon="-1.5082">
        <ele>11</ele>
        <time>2018-02-10T15:50:13Z</time>
      </trkpt>
      <trkpt lat="47.39812" lon="-1.50837">
        <ele>11</ele>
        <time>2018-02-10T15:50:19Z</time>
      </trkpt>
      <trkpt lat="47.398" lon="-1.50863">
        <ele>11</ele>
        <time>2018-02-10T15:50:26Z</time>
      </trkpt>
      <trkpt lat="47.3979" lon="-1.50882">
        <ele>12</ele>
        <time>2018-02-10T15:50:32Z</time>
      </trkpt>
      <trkpt lat="47.39786" lon="-1.50891">
        <ele>13</ele>
        <time>2018-02-10T15:50:35Z</time>
      </trkpt>
      <trkpt lat="47.39786" lon="-1.50896">
        <ele>13</ele>
        <time>2018-02-10T15:50:37Z</time>
      </trkpt>
      <trkpt lat="47.39786" lon="-1.50898">
        <ele>13</ele>
        <time>2018-02-10T15:50:38Z</time>
      </trkpt>
      <trkpt lat="47.39788" lon="-1.509">
        <ele>14</ele>
        <time>2018-02-10T15:50:40Z</time>
      </trkpt>
      <trkpt lat="47.39791" lon="-1.50906">
        <ele>14</ele>
        <time>2018-02-10T15:51:14Z</time>
      </trkpt>
      <trkpt lat="47.39792" lon="-1.50909">
        <ele>14</ele>
        <time>2018-02-10T15:51:15Z</time>
      </trkpt>
      <trkpt lat="47.39806" lon="-1.50926">
        <ele>14</ele>
        <time>2018-02-10T15:51:21Z</time>
      </trkpt>
      <trkpt lat="47.39823" lon="-1.50947">
        <ele>15</ele>
        <time>2018-02-10T15:51:27Z</time>
      </trkpt>
      <trkpt lat="47.39839" lon="-1.50968">
        <ele>15</ele>
        <time>2018-02-10T15:51:33Z</time>
      </trkpt>
      <trkpt lat="47.39842" lon="-1.50972">
        <ele>15</ele>
        <time>2018-02-10T15:51:34Z</time>
      </trkpt>
      <trkpt lat="47.39858" lon="-1.50993">
        <ele>15</ele>
        <time>2018-02-10T15:51:40Z</time>
      </trkpt>
      <trkpt lat="47.39879" lon="-1.5102">
        <ele>15</ele>
        <time>2018-02-10T15:51:47Z</time>
      </trkpt>
      <trkpt lat="47.39904" lon="-1.5105">
        <ele>15</ele>
        <time>2018-02-10T15:51:55Z</time>
      </trkpt>
      <trkpt lat="47.39923" lon="-1.51077">
        <ele>15</ele>
        <time>2018-02-10T15:52:02Z</time>
      </trkpt>
      <trkpt lat="47.39936" lon="-1.51094">
        <ele>15</ele>
        <time>2018-02-10T15:52:07Z</time>
      </trkpt>
      <trkpt lat="47.39954" lon="-1.51117">
        <ele>15</ele>
        <time>2018-02-10T15:52:14Z</time>
      </trkpt>
      <trkpt lat="47.39977" lon="-1.51145">
        <ele>15</ele>
        <time>2018-02-10T15:52:21Z</time>
      </trkpt>
      <trkpt lat="47.39999" lon="-1.51181">
        <ele>15</ele>
        <time>2018-02-10T15:52:28Z</time>
      </trkpt>
      <trkpt lat="47.40004" lon="-1.51191">
        <ele>15</ele>
        <time>2018-02-10T15:52:30Z</time>
      </trkpt>
      <trkpt lat="47.40012" lon="-1.51212">
        <ele>15</ele>
        <time>2018-02-10T15:52:34Z</time>
      </trkpt>
      <trkpt lat="47.40024" lon="-1.51238">
        <ele>15</ele>
        <time>2018-02-10T15:52:40Z</time>
      </trkpt>
      <trkpt lat="47.40038" lon="-1.51281">
        <ele>15</ele>
        <time>2018-02-10T15:52:48Z</time>
      </trkpt>
      <trkpt lat="47.40045" lon="-1.51319">
        <ele>16</ele>
        <time>2018-02-10T15:52:55Z</time>
      </trkpt>
      <trkpt lat="47.40055" lon="-1.51368">
        <ele>16</ele>
        <time>2018-02-10T15:53:04Z</time>
      </trkpt>
      <trkpt lat="47.40065" lon="-1.51412">
        <ele>16</ele>
        <time>2018-02-10T15:53:12Z</time>
      </trkpt>
      <trkpt lat="47.40067" lon="-1.51423">
        <ele>16</ele>
        <time>2018-02-10T15:53:14Z</time>
      </trkpt>
      <trkpt lat="47.40071" lon="-1.5144">
        <ele>16</ele>
        <time>2018-02-10T15:53:17Z</time>
      </trkpt>
      <trkpt lat="47.40075" lon="-1.51457">
        <ele>15</ele>
        <time>2018-02-10T15:53:20Z</time>
      </trkpt>
      <trkpt lat="47.40076" lon="-1.51462">
        <ele>15</ele>
        <time>2018-02-10T15:53:21Z</time>
      </trkpt>
      <trkpt lat="47.40083" lon="-1.51498">
        <ele>16</ele>
        <time>2018-02-10T15:53:28Z</time>
      </trkpt>
      <trkpt lat="47.40091" lon="-1.51532">
        <ele>16</ele>
        <time>2018-02-10T15:53:34Z</time>
      </trkpt>
      <trkpt lat="47.401" lon="-1.51575">
        <ele>16</ele>
        <time>2018-02-10T15:53:41Z</time>
      </trkpt>
      <trkpt lat="47.40105" lon="-1.51604">
        <ele>16</ele>
        <time>2018-02-10T15:53:47Z</time>
      </trkpt>
      <trkpt lat="47.40109" lon="-1.51631">
        <ele>15</ele>
        <time>2018-02-10T15:53:55Z</time>
      </trkpt>
      <trkpt lat="47.40113" lon="-1.51652">
        <ele>15</ele>
        <time>2018-02-10T15:54:01Z</time>
      </trkpt>
      <trkpt lat="47.40119" lon="-1.51678">
        <ele>16</ele>
        <time>2018-02-10T15:54:07Z</time>
      </trkpt>
      <trkpt lat="47.4013" lon="-1.51718">
        <ele>16</ele>
        <time>2018-02-10T15:54:16Z</time>
      </trkpt>
      <trkpt lat="47.4014" lon="-1.51741">
        <ele>16</ele>
        <time>2018-02-10T15:54:23Z</time>
      </trkpt>
      <trkpt lat="47.40153" lon="-1.51767">
        <ele>16</ele>
        <time>2018-02-10T15:54:31Z</time>
      </trkpt>
      <trkpt lat="47.40168" lon="-1.51791">
        <ele>16</ele>
        <time>2018-02-10T15:54:38Z</time>
      </trkpt>
      <trkpt lat="47.40185" lon="-1.51825">
        <ele>16</ele>
        <time>2018-02-10T15:54:46Z</time>
      </trkpt>
      <trkpt lat="47.40208" lon="-1.51859">
        <ele>16</ele>
        <time>2018-02-10T15:54:54Z</time>
      </trkpt>
      <trkpt lat="47.40219" lon="-1.51876">
        <ele>17</ele>
        <time>2018-02-10T15:54:59Z</time>
      </trkpt>
      <trkpt lat="47.40222" lon="-1.5188">
        <ele>17</ele>
        <time>2018-02-10T15:55:01Z</time>
      </trkpt>
      <trkpt lat="47.40227" lon="-1.51892">
        <ele>18</ele>
        <time>2018-02-10T15:55:15Z</time>
      </trkpt>
      <trkpt lat="47.40229" lon="-1.51896">
        <ele>18</ele>
        <time>2018-02-10T15:55:16Z</time>
      </trkpt>
      <trkpt lat="47.4024" lon="-1.51912">
        <ele>18</ele>
        <time>2018-02-10T15:55:20Z</time>
      </trkpt>
      <trkpt lat="47.40255" lon="-1.51937">
        <ele>17</ele>
        <time>2018-02-10T15:55:24Z</time>
      </trkpt>
      <trkpt lat="47.4026" lon="-1.51943">
        <ele>17</ele>
        <time>2018-02-10T15:55:25Z</time>
      </trkpt>
      <trkpt lat="47.40273" lon="-1.51964">
        <ele>16</ele>
        <time>2018-02-10T15:55:28Z</time>
      </trkpt>
      <trkpt lat="47.40288" lon="-1.51989">
        <ele>16</ele>
        <time>2018-02-10T15:55:32Z</time>
      </trkpt>
      <trkpt lat="47.40312" lon="-1.52022">
        <ele>15</ele>
        <time>2018-02-10T15:55:39Z</time>
      </trkpt>
      <trkpt lat="47.40334" lon="-1.52051">
        <ele>16</ele>
        <time>2018-02-10T15:55:45Z</time>
      </trkpt>
      <trkpt lat="47.40359" lon="-1.52087">
        <ele>15</ele>
        <time>2018-02-10T15:55:53Z</time>
      </trkpt>
      <trkpt lat="47.40386" lon="-1.52124">
        <ele>15</ele>
        <time>2018-02-10T15:56:01Z</time>
      </trkpt>
      <trkpt lat="47.40411" lon="-1.52166">
        <ele>16</ele>
        <time>2018-02-10T15:56:10Z</time>
      </trkpt>
      <trkpt lat="47.40424" lon="-1.52183">
        <ele>16</ele>
        <time>2018-02-10T15:56:14Z</time>
      </trkpt>
      <trkpt lat="47.40431" lon="-1.5219">
        <ele>16</ele>
        <time>2018-02-10T15:56:16Z</time>
      </trkpt>
      <trkpt lat="47.40438" lon="-1.52197">
        <ele>16</ele>
        <time>2018-02-10T15:56:18Z</time>
      </trkpt>
      <trkpt lat="47.40454" lon="-1.52218">
        <ele>16</ele>
        <time>2018-02-10T15:56:23Z</time>
      </trkpt>
      <trkpt lat="47.40481" lon="-1.52258">
        <ele>16</ele>
        <time>2018-02-10T15:56:32Z</time>
      </trkpt>
      <trkpt lat="47.405" lon="-1.52285">
        <ele>15</ele>
        <time>2018-02-10T15:56:40Z</time>
      </trkpt>
      <trkpt lat="47.40515" lon="-1.52305">
        <ele>16</ele>
        <time>2018-02-10T15:56:46Z</time>
      </trkpt>
      <trkpt lat="47.40535" lon="-1.52333">
        <ele>16</ele>
        <time>2018-02-10T15:56:54Z</time>
      </trkpt>
      <trkpt lat="47.40561" lon="-1.52371">
        <ele>16</ele>
        <time>2018-02-10T15:57:04Z</time>
      </trkpt>
      <trkpt lat="47.40584" lon="-1.52403">
        <ele>16</ele>
        <time>2018-02-10T15:57:13Z</time>
      </trkpt>
      <trkpt lat="47.40609" lon="-1.5244">
        <ele>15</ele>
        <time>2018-02-10T15:57:23Z</time>
      </trkpt>
      <trkpt lat="47.40638" lon="-1.52486">
        <ele>15</ele>
        <time>2018-02-10T15:57:35Z</time>
      </trkpt>
      <trkpt lat="47.40657" lon="-1.52526">
        <ele>15</ele>
        <time>2018-02-10T15:57:44Z</time>
      </trkpt>
      <trkpt lat="47.40673" lon="-1.52571">
        <ele>16</ele>
        <time>2018-02-10T15:57:53Z</time>
      </trkpt>
      <trkpt lat="47.40684" lon="-1.52616">
        <ele>16</ele>
        <time>2018-02-10T15:58:01Z</time>
      </trkpt>
      <trkpt lat="47.40693" lon="-1.52663">
        <ele>16</ele>
        <time>2018-02-10T15:58:09Z</time>
      </trkpt>
      <trkpt lat="47.407" lon="-1.52711">
        <ele>16</ele>
        <time>2018-02-10T15:58:17Z</time>
      </trkpt>
      <trkpt lat="47.40704" lon="-1.5276">
        <ele>16</ele>
        <time>2018-02-10T15:58:25Z</time>
      </trkpt>
      <trkpt lat="47.40704" lon="-1.52814">
        <ele>16</ele>
        <time>2018-02-10T15:58:34Z</time>
      </trkpt>
      <trkpt lat="47.40702" lon="-1.52863">
        <ele>16</ele>
        <time>2018-02-10T15:58:42Z</time>
      </trkpt>
      <trkpt lat="47.40693" lon="-1.52924">
        <ele>16</ele>
        <time>2018-02-10T15:58:52Z</time>
      </trkpt>
      <trkpt lat="47.40683" lon="-1.52973">
        <ele>16</ele>
        <time>2018-02-10T15:59:00Z</time>
      </trkpt>
      <trkpt lat="47.40671" lon="-1.53032">
        <ele>16</ele>
        <time>2018-02-10T15:59:10Z</time>
      </trkpt>
      <trkpt lat="47.4066" lon="-1.53086">
        <ele>16</ele>
        <time>2018-02-10T15:59:19Z</time>
      </trkpt>
      <trkpt lat="47.4065" lon="-1.53142">
        <ele>16</ele>
        <time>2018-02-10T15:59:28Z</time>
      </trkpt>
      <trkpt lat="47.40648" lon="-1.53184">
        <ele>16</ele>
        <time>2018-02-10T15:59:35Z</time>
      </trkpt>
      <trkpt lat="47.4065" lon="-1.53232">
        <ele>16</ele>
        <time>2018-02-10T15:59:43Z</time>
      </trkpt>
      <trkpt lat="47.40653" lon="-1.53244">
        <ele>16</ele>
        <time>2018-02-10T15:59:45Z</time>
      </trkpt>
      <trkpt lat="47.40661" lon="-1.53258">
        <ele>16</ele>
        <time>2018-02-10T15:59:48Z</time>
      </trkpt>
      <trkpt lat="47.40667" lon="-1.53266">
        <ele>16</ele>
        <time>2018-02-10T15:59:50Z</time>
      </trkpt>
      <trkpt lat="47.40674" lon="-1.53273">
        <ele>16</ele>
        <time>2018-02-10T15:59:52Z</time>
      </trkpt>
      <trkpt lat="47.40681" lon="-1.53279">
        <ele>16</ele>
        <time>2018-02-10T15:59:54Z</time>
      </trkpt>
      <trkpt lat="47.40685" lon="-1.5328">
        <ele>16</ele>
        <time>2018-02-10T15:59:55Z</time>
      </trkpt>
      <trkpt lat="47.40705" lon="-1.5329">
        <ele>16</ele>
        <time>2018-02-10T16:00:00Z</time>
      </trkpt>
      <trkpt lat="47.40732" lon="-1.53301">
        <ele>16</ele>
        <time>2018-02-10T16:00:07Z</time>
      </trkpt>
      <trkpt lat="47.40765" lon="-1.53316">
        <ele>16</ele>
        <time>2018-02-10T16:00:15Z</time>
      </trkpt>
      <trkpt lat="47.40794" lon="-1.53329">
        <ele>16</ele>
        <time>2018-02-10T16:00:22Z</time>
      </trkpt>
      <trkpt lat="47.40823" lon="-1.53342">
        <ele>16</ele>
        <time>2018-02-10T16:00:29Z</time>
      </trkpt>
      <trkpt lat="47.40863" lon="-1.53358">
        <ele>16</ele>
        <time>2018-02-10T16:00:38Z</time>
      </trkpt>
      <trkpt lat="47.40898" lon="-1.53374">
        <ele>16</ele>
        <time>2018-02-10T16:00:46Z</time>
      </trkpt>
      <trkpt lat="47.40934" lon="-1.53388">
        <ele>15</ele>
        <time>2018-02-10T16:00:54Z</time>
      </trkpt>
      <trkpt lat="47.40968" lon="-1.53407">
        <ele>15</ele>
        <time>2018-02-10T16:01:03Z</time>
      </trkpt>
      <trkpt lat="47.40998" lon="-1.5343">
        <ele>15</ele>
        <time>2018-02-10T16:01:11Z</time>
      </trkpt>
      <trkpt lat="47.4102" lon="-1.53451">
        <ele>15</ele>
        <time>2018-02-10T16:01:18Z</time>
      </trkpt>
      <trkpt lat="47.41032" lon="-1.53462">
        <ele>17</ele>
        <time>2018-02-10T16:01:24Z</time>
      </trkpt>
      <trkpt lat="47.41035" lon="-1.53466">
        <ele>19</ele>
        <time>2018-02-10T16:02:53Z</time>
      </trkpt>
      <trkpt lat="47.41038" lon="-1.53469">
        <ele>19</ele>
        <time>2018-02-10T16:02:54Z</time>
      </trkpt>
      <trkpt lat="47.41057" lon="-1.5349">
        <ele>18</ele>
        <time>2018-02-10T16:02:58Z</time>
      </trkpt>
      <trkpt lat="47.41067" lon="-1.53503">
        <ele>17</ele>
        <time>2018-02-10T16:03:00Z</time>
      </trkpt>
      <trkpt lat="47.41073" lon="-1.53508">
        <ele>17</ele>
        <time>2018-02-10T16:03:01Z</time>
      </trkpt>
      <trkpt lat="47.41083" lon="-1.53517">
        <ele>16</ele>
        <time>2018-02-10T16:03:03Z</time>
      </trkpt>
      <trkpt lat="47.41113" lon="-1.53536">
        <ele>16</ele>
        <time>2018-02-10T16:03:09Z</time>
      </trkpt>
      <trkpt lat="47.41117" lon="-1.53538">
        <ele>16</ele>
        <time>2018-02-10T16:03:10Z</time>
      </trkpt>
      <trkpt lat="47.4115" lon="-1.53546">
        <ele>15</ele>
        <time>2018-02-10T16:03:17Z</time>
      </trkpt>
      <trkpt lat="47.41186" lon="-1.53541">
        <ele>15</ele>
        <time>2018-02-10T16:03:24Z</time>
      </trkpt>
      <trkpt lat="47.41221" lon="-1.53532">
        <ele>15</ele>
        <time>2018-02-10T16:03:30Z</time>
      </trkpt>
      <trkpt lat="47.41252" lon="-1.53523">
        <ele>15</ele>
        <time>2018-02-10T16:03:36Z</time>
      </trkpt>
      <trkpt lat="47.41292" lon="-1.53511">
        <ele>16</ele>
        <time>2018-02-10T16:03:44Z</time>
      </trkpt>
      <trkpt lat="47.41325" lon="-1.53501">
        <ele>15</ele>
        <time>2018-02-10T16:03:51Z</time>
      </trkpt>
      <trkpt lat="47.41362" lon="-1.53489">
        <ele>15</ele>
        <time>2018-02-10T16:03:59Z</time>
      </trkpt>
      <trkpt lat="47.41396" lon="-1.53478">
        <ele>15</ele>
        <time>2018-02-10T16:04:06Z</time>
      </trkpt>
      <trkpt lat="47.41433" lon="-1.53467">
        <ele>15</ele>
        <time>2018-02-10T16:04:14Z</time>
      </trkpt>
      <trkpt lat="47.41469" lon="-1.53457">
        <ele>15</ele>
        <time>2018-02-10T16:04:22Z</time>
      </trkpt>
      <trkpt lat="47.41487" lon="-1.53454">
        <ele>15</ele>
        <time>2018-02-10T16:04:26Z</time>
      </trkpt>
      <trkpt lat="47.41497" lon="-1.53454">
        <ele>15</ele>
        <time>2018-02-10T16:04:28Z</time>
      </trkpt>
      <trkpt lat="47.41537" lon="-1.53456">
        <ele>15</ele>
        <time>2018-02-10T16:04:36Z</time>
      </trkpt>
      <trkpt lat="47.41572" lon="-1.53462">
        <ele>15</ele>
        <time>2018-02-10T16:04:43Z</time>
      </trkpt>
      <trkpt lat="47.41597" lon="-1.53471">
        <ele>16</ele>
        <time>2018-02-10T16:04:50Z</time>
      </trkpt>
      <trkpt lat="47.41613" lon="-1.53478">
        <ele>16</ele>
        <time>2018-02-10T16:04:54Z</time>
      </trkpt>
      <trkpt lat="47.41621" lon="-1.53483">
        <ele>16</ele>
        <time>2018-02-10T16:04:56Z</time>
      </trkpt>
      <trkpt lat="47.41647" lon="-1.53498">
        <ele>16</ele>
        <time>2018-02-10T16:05:02Z</time>
      </trkpt>
      <trkpt lat="47.4167" lon="-1.53511">
        <ele>16</ele>
        <time>2018-02-10T16:05:07Z</time>
      </trkpt>
      <trkpt lat="47.41682" lon="-1.53518">
        <ele>16</ele>
        <time>2018-02-10T16:05:10Z</time>
      </trkpt>
      <trkpt lat="47.41716" lon="-1.53539">
        <ele>16</ele>
        <time>2018-02-10T16:05:18Z</time>
      </trkpt>
      <trkpt lat="47.41748" lon="-1.53559">
        <ele>16</ele>
        <time>2018-02-10T16:05:26Z</time>
      </trkpt>
      <trkpt lat="47.41787" lon="-1.53583">
        <ele>16</ele>
        <time>2018-02-10T16:05:36Z</time>
      </trkpt>
      <trkpt lat="47.41817" lon="-1.53599">
        <ele>16</ele>
        <time>2018-02-10T16:05:43Z</time>
      </trkpt>
      <trkpt lat="47.41847" lon="-1.5361">
        <ele>16</ele>
        <time>2018-02-10T16:05:50Z</time>
      </trkpt>
      <trkpt lat="47.41856" lon="-1.5361">
        <ele>16</ele>
        <time>2018-02-10T16:05:52Z</time>
      </trkpt>
      <trkpt lat="47.41878" lon="-1.53605">
        <ele>16</ele>
        <time>2018-02-10T16:05:57Z</time>
      </trkpt>
      <trkpt lat="47.41905" lon="-1.53591">
        <ele>16</ele>
        <time>2018-02-10T16:06:04Z</time>
      </trkpt>
      <trkpt lat="47.41933" lon="-1.53575">
        <ele>16</ele>
        <time>2018-02-10T16:06:11Z</time>
      </trkpt>
      <trkpt lat="47.41948" lon="-1.53565">
        <ele>17</ele>
        <time>2018-02-10T16:06:17Z</time>
      </trkpt>
      <trkpt lat="47.41951" lon="-1.53564">
        <ele>17</ele>
        <time>2018-02-10T16:06:18Z</time>
      </trkpt>
      <trkpt lat="47.41969" lon="-1.53555">
        <ele>18</ele>
        <time>2018-02-10T16:06:24Z</time>
      </trkpt>
      <trkpt lat="47.41979" lon="-1.53548">
        <ele>18</ele>
        <time>2018-02-10T16:06:27Z</time>
      </trkpt>
      <trkpt lat="47.41996" lon="-1.53538">
        <ele>19</ele>
        <time>2018-02-10T16:06:32Z</time>
      </trkpt>
      <trkpt lat="47.42023" lon="-1.53523">
        <ele>19</ele>
        <time>2018-02-10T16:06:39Z</time>
      </trkpt>
      <trkpt lat="47.42061" lon="-1.535">
        <ele>18</ele>
        <time>2018-02-10T16:06:48Z</time>
      </trkpt>
      <trkpt lat="47.42093" lon="-1.53482">
        <ele>18</ele>
        <time>2018-02-10T16:06:56Z</time>
      </trkpt>
      <trkpt lat="47.42123" lon="-1.53464">
        <ele>18</ele>
        <time>2018-02-10T16:07:03Z</time>
      </trkpt>
      <trkpt lat="47.42151" lon="-1.53447">
        <ele>18</ele>
        <time>2018-02-10T16:07:10Z</time>
      </trkpt>
      <trkpt lat="47.42191" lon="-1.53426">
        <ele>18</ele>
        <time>2018-02-10T16:07:19Z</time>
      </trkpt>
      <trkpt lat="47.42204" lon="-1.5342">
        <ele>18</ele>
        <time>2018-02-10T16:07:22Z</time>
      </trkpt>
      <trkpt lat="47.42212" lon="-1.53414">
        <ele>18</ele>
        <time>2018-02-10T16:07:24Z</time>
      </trkpt>
      <trkpt lat="47.42258" lon="-1.53386">
        <ele>19</ele>
        <time>2018-02-10T16:07:34Z</time>
      </trkpt>
      <trkpt lat="47.42297" lon="-1.53363">
        <ele>19</ele>
        <time>2018-02-10T16:07:43Z</time>
      </trkpt>
      <trkpt lat="47.4233" lon="-1.53346">
        <ele>19</ele>
        <time>2018-02-10T16:07:51Z</time>
      </trkpt>
      <trkpt lat="47.42339" lon="-1.53343">
        <ele>19</ele>
        <time>2018-02-10T16:07:53Z</time>
      </trkpt>
      <trkpt lat="47.4236" lon="-1.53337">
        <ele>19</ele>
        <time>2018-02-10T16:07:57Z</time>
      </trkpt>
      <trkpt lat="47.42365" lon="-1.53335">
        <ele>19</ele>
        <time>2018-02-10T16:07:58Z</time>
      </trkpt>
      <trkpt lat="47.42399" lon="-1.53323">
        <ele>19</ele>
        <time>2018-02-10T16:08:05Z</time>
      </trkpt>
      <trkpt lat="47.42425" lon="-1.53316">
        <ele>19</ele>
        <time>2018-02-10T16:08:10Z</time>
      </trkpt>
      <trkpt lat="47.42466" lon="-1.53303">
        <ele>19</ele>
        <time>2018-02-10T16:08:17Z</time>
      </trkpt>
      <trkpt lat="47.42495" lon="-1.53294">
        <ele>19</ele>
        <time>2018-02-10T16:08:23Z</time>
      </trkpt>
      <trkpt lat="47.42529" lon="-1.5328">
        <ele>19</ele>
        <time>2018-02-10T16:08:31Z</time>
      </trkpt>
      <trkpt lat="47.42555" lon="-1.53262">
        <ele>19</ele>
        <time>2018-02-10T16:08:38Z</time>
      </trkpt>
      <trkpt lat="47.42575" lon="-1.53243">
        <ele>19</ele>
        <time>2018-02-10T16:08:45Z</time>
      </trkpt>
      <trkpt lat="47.42583" lon="-1.53232">
        <ele>18</ele>
        <time>2018-02-10T16:08:50Z</time>
      </trkpt>
      <trkpt lat="47.42587" lon="-1.53227">
        <ele>19</ele>
        <time>2018-02-10T16:10:45Z</time>
      </trkpt>
      <trkpt lat="47.42589" lon="-1.53225">
        <ele>19</ele>
        <time>2018-02-10T16:10:46Z</time>
      </trkpt>
      <trkpt lat="47.42605" lon="-1.53205">
        <ele>19</ele>
        <time>2018-02-10T16:10:53Z</time>
      </trkpt>
      <trkpt lat="47.42628" lon="-1.53174">
        <ele>19</ele>
        <time>2018-02-10T16:11:01Z</time>
      </trkpt>
      <trkpt lat="47.42651" lon="-1.53141">
        <ele>19</ele>
        <time>2018-02-10T16:11:08Z</time>
      </trkpt>
      <trkpt lat="47.4268" lon="-1.5311">
        <ele>19</ele>
        <time>2018-02-10T16:11:16Z</time>
      </trkpt>
      <trkpt lat="47.42709" lon="-1.53087">
        <ele>19</ele>
        <time>2018-02-10T16:11:23Z</time>
      </trkpt>
      <trkpt lat="47.42751" lon="-1.53063">
        <ele>19</ele>
        <time>2018-02-10T16:11:33Z</time>
      </trkpt>
      <trkpt lat="47.42775" lon="-1.53056">
        <ele>19</ele>
        <time>2018-02-10T16:11:39Z</time>
      </trkpt>
      <trkpt lat="47.4281" lon="-1.53051">
        <ele>19</ele>
        <time>2018-02-10T16:11:47Z</time>
      </trkpt>
      <trkpt lat="47.42841" lon="-1.53052">
        <ele>19</ele>
        <time>2018-02-10T16:11:54Z</time>
      </trkpt>
      <trkpt lat="47.42883" lon="-1.53056">
        <ele>19</ele>
        <time>2018-02-10T16:12:03Z</time>
      </trkpt>
      <trkpt lat="47.4292" lon="-1.5306">
        <ele>19</ele>
        <time>2018-02-10T16:12:11Z</time>
      </trkpt>
      <trkpt lat="47.42958" lon="-1.5306">
        <ele>19</ele>
        <time>2018-02-10T16:12:19Z</time>
      </trkpt>
      <trkpt lat="47.42963" lon="-1.53059">
        <ele>20</ele>
        <time>2018-02-10T16:12:20Z</time>
      </trkpt>
      <trkpt lat="47.4299" lon="-1.53051">
        <ele>20</ele>
        <time>2018-02-10T16:12:26Z</time>
      </trkpt>
      <trkpt lat="47.43024" lon="-1.53031">
        <ele>20</ele>
        <time>2018-02-10T16:12:34Z</time>
      </trkpt>
      <trkpt lat="47.43041" lon="-1.53015">
        <ele>20</ele>
        <time>2018-02-10T16:12:38Z</time>
      </trkpt>
      <trkpt lat="47.43052" lon="-1.53001">
        <ele>20</ele>
        <time>2018-02-10T16:12:41Z</time>
      </trkpt>
      <trkpt lat="47.43062" lon="-1.52987">
        <ele>20</ele>
        <time>2018-02-10T16:12:44Z</time>
      </trkpt>
      <trkpt lat="47.43068" lon="-1.52977">
        <ele>20</ele>
        <time>2018-02-10T16:12:46Z</time>
      </trkpt>
      <trkpt lat="47.43077" lon="-1.5296">
        <ele>20</ele>
        <time>2018-02-10T16:12:49Z</time>
      </trkpt>
      <trkpt lat="47.43096" lon="-1.52921">
        <ele>19</ele>
        <time>2018-02-10T16:12:56Z</time>
      </trkpt>
      <trkpt lat="47.43117" lon="-1.5288">
        <ele>20</ele>
        <time>2018-02-10T16:13:04Z</time>
      </trkpt>
      <trkpt lat="47.43136" lon="-1.52857">
        <ele>19</ele>
        <time>2018-02-10T16:13:10Z</time>
      </trkpt>
      <trkpt lat="47.43151" lon="-1.52844">
        <ele>20</ele>
        <time>2018-02-10T16:13:16Z</time>
      </trkpt>
      <trkpt lat="47.43152" lon="-1.52843">
        <ele>21</ele>
        <time>2018-02-10T16:13:17Z</time>
      </trkpt>
      <trkpt lat="47.43157" lon="-1.52838">
        <ele>24</ele>
        <time>2018-02-10T16:14:34Z</time>
      </trkpt>
      <trkpt lat="47.4316" lon="-1.52836">
        <ele>24</ele>
        <time>2018-02-10T16:14:35Z</time>
      </trkpt>
      <trkpt lat="47.43182" lon="-1.52826">
        <ele>23</ele>
        <time>2018-02-10T16:14:39Z</time>
      </trkpt>
      <trkpt lat="47.43189" lon="-1.52824">
        <ele>23</ele>
        <time>2018-02-10T16:14:40Z</time>
      </trkpt>
      <trkpt lat="47.43211" lon="-1.5282">
        <ele>21</ele>
        <time>2018-02-10T16:14:43Z</time>
      </trkpt>
      <trkpt lat="47.43217" lon="-1.52819">
        <ele>21</ele>
        <time>2018-02-10T16:14:44Z</time>
      </trkpt>
      <trkpt lat="47.4325" lon="-1.52822">
        <ele>20</ele>
        <time>2018-02-10T16:14:50Z</time>
      </trkpt>
      <trkpt lat="47.43287" lon="-1.52827">
        <ele>20</ele>
        <time>2018-02-10T16:14:57Z</time>
      </trkpt>
      <trkpt lat="47.43337" lon="-1.52842">
        <ele>20</ele>
        <time>2018-02-10T16:15:06Z</time>
      </trkpt>
      <trkpt lat="47.43368" lon="-1.52864">
        <ele>20</ele>
        <time>2018-02-10T16:15:12Z</time>
      </trkpt>
      <trkpt lat="47.43392" lon="-1.52896">
        <ele>20</ele>
        <time>2018-02-10T16:15:18Z</time>
      </trkpt>
      <trkpt lat="47.43395" lon="-1.52902">
        <ele>20</ele>
        <time>2018-02-10T16:15:19Z</time>
      </trkpt>
      <trkpt lat="47.43405" lon="-1.5293">
        <ele>21</ele>
        <time>2018-02-10T16:15:23Z</time>
      </trkpt>
      <trkpt lat="47.43407" lon="-1.52937">
        <ele>21</ele>
        <time>2018-02-10T16:15:24Z</time>
      </trkpt>
      <trkpt lat="47.43413" lon="-1.5297">
        <ele>21</ele>
        <time>2018-02-10T16:15:28Z</time>
      </trkpt>
      <trkpt lat="47.43414" lon="-1.53036">
        <ele>21</ele>
        <time>2018-02-10T16:15:36Z</time>
      </trkpt>
      <trkpt lat="47.43407" lon="-1.53112">
        <ele>21</ele>
        <time>2018-02-10T16:15:45Z</time>
      </trkpt>
      <trkpt lat="47.43401" lon="-1.53188">
        <ele>21</ele>
        <time>2018-02-10T16:15:54Z</time>
      </trkpt>
      <trkpt lat="47.43395" lon="-1.53244">
        <ele>21</ele>
        <time>2018-02-10T16:16:01Z</time>
      </trkpt>
      <trkpt lat="47.43391" lon="-1.53306">
        <ele>21</ele>
        <time>2018-02-10T16:16:09Z</time>
      </trkpt>
      <trkpt lat="47.43389" lon="-1.53356">
        <ele>21</ele>
        <time>2018-02-10T16:16:15Z</time>
      </trkpt>
      <trkpt lat="47.43393" lon="-1.53416">
        <ele>22</ele>
        <time>2018-02-10T16:16:22Z</time>
      </trkpt>
      <trkpt lat="47.43407" lon="-1.53476">
        <ele>22</ele>
        <time>2018-02-10T16:16:29Z</time>
      </trkpt>
      <trkpt lat="47.43435" lon="-1.53548">
        <ele>22</ele>
        <time>2018-02-10T16:16:38Z</time>
      </trkpt>
      <trkpt lat="47.43462" lon="-1.53609">
        <ele>22</ele>
        <time>2018-02-10T16:16:46Z</time>
      </trkpt>
      <trkpt lat="47.43487" lon="-1.53661">
        <ele>22</ele>
        <time>2018-02-10T16:16:53Z</time>
      </trkpt>
      <trkpt lat="47.43513" lon="-1.537">
        <ele>22</ele>
        <time>2018-02-10T16:16:59Z</time>
      </trkpt>
      <trkpt lat="47.43548" lon="-1.5374">
        <ele>22</ele>
        <time>2018-02-10T16:17:06Z</time>
      </trkpt>
      <trkpt lat="47.43588" lon="-1.53772">
        <ele>22</ele>
        <time>2018-02-10T16:17:13Z</time>
      </trkpt>
      <trkpt lat="47.43635" lon="-1.53795">
        <ele>22</ele>
        <time>2018-02-10T16:17:21Z</time>
      </trkpt>
      <trkpt lat="47.43682" lon="-1.53805">
        <ele>22</ele>
        <time>2018-02-10T16:17:29Z</time>
      </trkpt>
      <trkpt lat="47.43707" lon="-1.53812">
        <ele>22</ele>
        <time>2018-02-10T16:17:34Z</time>
      </trkpt>
      <trkpt lat="47.43711" lon="-1.53812">
        <ele>22</ele>
        <time>2018-02-10T16:17:35Z</time>
      </trkpt>
      <trkpt lat="47.43718" lon="-1.53813">
        <ele>22</ele>
        <time>2018-02-10T16:17:37Z</time>
      </trkpt>
      <trkpt lat="47.43722" lon="-1.53814">
        <ele>23</ele>
        <time>2018-02-10T16:17:40Z</time>
      </trkpt>
      <trkpt lat="47.43724" lon="-1.53815">
        <ele>25</ele>
        <time>2018-02-10T16:18:08Z</time>
      </trkpt>
      <trkpt lat="47.43727" lon="-1.53816">
        <ele>25</ele>
        <time>2018-02-10T16:18:10Z</time>
      </trkpt>
      <trkpt lat="47.43741" lon="-1.53821">
        <ele>25</ele>
        <time>2018-02-10T16:18:14Z</time>
      </trkpt>
      <trkpt lat="47.43778" lon="-1.53829">
        <ele>24</ele>
        <time>2018-02-10T16:18:21Z</time>
      </trkpt>
      <trkpt lat="47.43825" lon="-1.53839">
        <ele>24</ele>
        <time>2018-02-10T16:18:29Z</time>
      </trkpt>
      <trkpt lat="47.4383" lon="-1.5384">
        <ele>24</ele>
        <time>2018-02-10T16:18:30Z</time>
      </trkpt>
      <trkpt lat="47.43868" lon="-1.53853">
        <ele>24</ele>
        <time>2018-02-10T16:18:37Z</time>
      </trkpt>
      <trkpt lat="47.43902" lon="-1.53875">
        <ele>24</ele>
        <time>2018-02-10T16:18:43Z</time>
      </trkpt>
      <trkpt lat="47.43933" lon="-1.5391">
        <ele>24</ele>
        <time>2018-02-10T16:18:49Z</time>
      </trkpt>
      <trkpt lat="47.43959" lon="-1.53958">
        <ele>24</ele>
        <time>2018-02-10T16:18:55Z</time>
      </trkpt>
      <trkpt lat="47.43979" lon="-1.54015">
        <ele>25</ele>
        <time>2018-02-10T16:19:01Z</time>
      </trkpt>
      <trkpt lat="47.43997" lon="-1.54097">
        <ele>25</ele>
        <time>2018-02-10T16:19:09Z</time>
      </trkpt>
      <trkpt lat="47.44014" lon="-1.54177">
        <ele>25</ele>
        <time>2018-02-10T16:19:17Z</time>
      </trkpt>
      <trkpt lat="47.44017" lon="-1.54197">
        <ele>25</ele>
        <time>2018-02-10T16:19:19Z</time>
      </trkpt>
      <trkpt lat="47.44034" lon="-1.54277">
        <ele>25</ele>
        <time>2018-02-10T16:19:27Z</time>
      </trkpt>
      <trkpt lat="47.44037" lon="-1.54287">
        <ele>25</ele>
        <time>2018-02-10T16:19:28Z</time>
      </trkpt>
      <trkpt lat="47.44044" lon="-1.54314">
        <ele>24</ele>
        <time>2018-02-10T16:19:31Z</time>
      </trkpt>
      <trkpt lat="47.44047" lon="-1.54332">
        <ele>24</ele>
        <time>2018-02-10T16:19:33Z</time>
      </trkpt>
      <trkpt lat="47.44049" lon="-1.54351">
        <ele>25</ele>
        <time>2018-02-10T16:19:35Z</time>
      </trkpt>
      <trkpt lat="47.44055" lon="-1.54387">
        <ele>24</ele>
        <time>2018-02-10T16:19:39Z</time>
      </trkpt>
      <trkpt lat="47.44064" lon="-1.54459">
        <ele>24</ele>
        <time>2018-02-10T16:19:47Z</time>
      </trkpt>
      <trkpt lat="47.44066" lon="-1.54533">
        <ele>25</ele>
        <time>2018-02-10T16:19:55Z</time>
      </trkpt>
      <trkpt lat="47.44063" lon="-1.54586">
        <ele>25</ele>
        <time>2018-02-10T16:20:01Z</time>
      </trkpt>
      <trkpt lat="47.44055" lon="-1.54637">
        <ele>25</ele>
        <time>2018-02-10T16:20:07Z</time>
      </trkpt>
      <trkpt lat="47.4404" lon="-1.54705">
        <ele>25</ele>
        <time>2018-02-10T16:20:15Z</time>
      </trkpt>
      <trkpt lat="47.44024" lon="-1.54776">
        <ele>25</ele>
        <time>2018-02-10T16:20:23Z</time>
      </trkpt>
      <trkpt lat="47.44008" lon="-1.54856">
        <ele>25</ele>
        <time>2018-02-10T16:20:32Z</time>
      </trkpt>
      <trkpt lat="47.43999" lon="-1.54901">
        <ele>25</ele>
        <time>2018-02-10T16:20:37Z</time>
      </trkpt>
      <trkpt lat="47.43993" lon="-1.54935">
        <ele>25</ele>
        <time>2018-02-10T16:20:41Z</time>
      </trkpt>
      <trkpt lat="47.43986" lon="-1.54969">
        <ele>26</ele>
        <time>2018-02-10T16:20:46Z</time>
      </trkpt>
      <trkpt lat="47.43982" lon="-1.54986">
        <ele>26</ele>
        <time>2018-02-10T16:20:49Z</time>
      </trkpt>
      <trkpt lat="47.43982" lon="-1.55006">
        <ele>27</ele>
        <time>2018-02-10T16:20:53Z</time>
      </trkpt>
      <trkpt lat="47.43981" lon="-1.55002">
        <ele>26</ele>
        <time>2018-02-10T16:22:44Z</time>
      </trkpt>
      <trkpt lat="47.43984" lon="-1.54984">
        <ele>26</ele>
        <time>2018-02-10T16:22:49Z</time>
      </trkpt>
      <trkpt lat="47.43991" lon="-1.54949">
        <ele>26</ele>
        <time>2018-02-10T16:22:55Z</time>
      </trkpt>
      <trkpt lat="47.43999" lon="-1.54904">
        <ele>26</ele>
        <time>2018-02-10T16:23:00Z</time>
      </trkpt>
      <trkpt lat="47.44001" lon="-1.54894">
        <ele>25</ele>
        <time>2018-02-10T16:23:01Z</time>
      </trkpt>
      <trkpt lat="47.44013" lon="-1.54831">
        <ele>24</ele>
        <time>2018-02-10T16:23:07Z</time>
      </trkpt>
      <trkpt lat="47.4403" lon="-1.54749">
        <ele>24</ele>
        <time>2018-02-10T16:23:15Z</time>
      </trkpt>
      <trkpt lat="47.44034" lon="-1.54729">
        <ele>24</ele>
        <time>2018-02-10T16:23:17Z</time>
      </trkpt>
      <trkpt lat="47.44045" lon="-1.54688">
        <ele>24</ele>
        <time>2018-02-10T16:23:21Z</time>
      </trkpt>
      <trkpt lat="47.44051" lon="-1.54656">
        <ele>24</ele>
        <time>2018-02-10T16:23:24Z</time>
      </trkpt>
      <trkpt lat="47.44063" lon="-1.54569">
        <ele>24</ele>
        <time>2018-02-10T16:23:32Z</time>
      </trkpt>
      <trkpt lat="47.44065" lon="-1.54548">
        <ele>24</ele>
        <time>2018-02-10T16:23:34Z</time>
      </trkpt>
      <trkpt lat="47.44065" lon="-1.54507">
        <ele>24</ele>
        <time>2018-02-10T16:23:38Z</time>
      </trkpt>
      <trkpt lat="47.44062" lon="-1.54436">
        <ele>23</ele>
        <time>2018-02-10T16:23:45Z</time>
      </trkpt>
      <trkpt lat="47.44056" lon="-1.54397">
        <ele>23</ele>
        <time>2018-02-10T16:23:49Z</time>
      </trkpt>
      <trkpt lat="47.44049" lon="-1.54359">
        <ele>23</ele>
        <time>2018-02-10T16:23:53Z</time>
      </trkpt>
      <trkpt lat="47.44045" lon="-1.54325">
        <ele>23</ele>
        <time>2018-02-10T16:23:58Z</time>
      </trkpt>
      <trkpt lat="47.44047" lon="-1.54321">
        <ele>23</ele>
        <time>2018-02-10T16:23:59Z</time>
      </trkpt>
      <trkpt lat="47.44052" lon="-1.5432">
        <ele>24</ele>
        <time>2018-02-10T16:24:01Z</time>
      </trkpt>
      <trkpt lat="47.44057" lon="-1.5432">
        <ele>24</ele>
        <time>2018-02-10T16:24:03Z</time>
      </trkpt>
      <trkpt lat="47.44071" lon="-1.54317">
        <ele>24</ele>
        <time>2018-02-10T16:24:08Z</time>
      </trkpt>
      <trkpt lat="47.44088" lon="-1.54312">
        <ele>24</ele>
        <time>2018-02-10T16:24:14Z</time>
      </trkpt>
      <trkpt lat="47.44093" lon="-1.5431">
        <ele>25</ele>
        <time>2018-02-10T16:24:16Z</time>
      </trkpt>
      <trkpt lat="47.44103" lon="-1.54307">
        <ele>25</ele>
        <time>2018-02-10T16:24:20Z</time>
      </trkpt>
      <trkpt lat="47.44116" lon="-1.54303">
        <ele>26</ele>
        <time>2018-02-10T16:24:24Z</time>
      </trkpt>
      <trkpt lat="47.44123" lon="-1.54298">
        <ele>26</ele>
        <time>2018-02-10T16:24:27Z</time>
      </trkpt>
      <trkpt lat="47.44123" lon="-1.54296">
        <ele>26</ele>
        <time>2018-02-10T16:24:28Z</time>
      </trkpt>
      <trkpt lat="47.44123" lon="-1.54276">
        <ele>26</ele>
        <time>2018-02-10T16:24:32Z</time>
      </trkpt>
      <trkpt lat="47.44127" lon="-1.54225">
        <ele>26</ele>
        <time>2018-02-10T16:24:37Z</time>
      </trkpt>
      <trkpt lat="47.44132" lon="-1.54169">
        <ele>26</ele>
        <time>2018-02-10T16:24:43Z</time>
      </trkpt>
      <trkpt lat="47.44135" lon="-1.54161">
        <ele>26</ele>
        <time>2018-02-10T16:24:44Z</time>
      </trkpt>
      <trkpt lat="47.44148" lon="-1.54148">
        <ele>26</ele>
        <time>2018-02-10T16:24:47Z</time>
      </trkpt>
      <trkpt lat="47.44154" lon="-1.54145">
        <ele>26</ele>
        <time>2018-02-10T16:24:48Z</time>
      </trkpt>
      <trkpt lat="47.44175" lon="-1.54131">
        <ele>25</ele>
        <time>2018-02-10T16:24:52Z</time>
      </trkpt>
      <trkpt lat="47.4418" lon="-1.54127">
        <ele>25</ele>
        <time>2018-02-10T16:24:53Z</time>
      </trkpt>
      <trkpt lat="47.44211" lon="-1.54097">
        <ele>25</ele>
        <time>2018-02-10T16:24:59Z</time>
      </trkpt>
      <trkpt lat="47.44222" lon="-1.54089">
        <ele>25</ele>
        <time>2018-02-10T16:25:01Z</time>
      </trkpt>
      <trkpt lat="47.44239" lon="-1.54086">
        <ele>25</ele>
        <time>2018-02-10T16:25:04Z</time>
      </trkpt>
      <trkpt lat="47.44263" lon="-1.54099">
        <ele>25</ele>
        <time>2018-02-10T16:25:08Z</time>
      </trkpt>
      <trkpt lat="47.44268" lon="-1.54103">
        <ele>25</ele>
        <time>2018-02-10T16:25:09Z</time>
      </trkpt>
      <trkpt lat="47.44302" lon="-1.54133">
        <ele>26</ele>
        <time>2018-02-10T16:25:15Z</time>
      </trkpt>
      <trkpt lat="47.44352" lon="-1.54171">
        <ele>26</ele>
        <time>2018-02-10T16:25:23Z</time>
      </trkpt>
      <trkpt lat="47.44359" lon="-1.54175">
        <ele>26</ele>
        <time>2018-02-10T16:25:24Z</time>
      </trkpt>
      <trkpt lat="47.44409" lon="-1.5421">
        <ele>26</ele>
        <time>2018-02-10T16:25:32Z</time>
      </trkpt>
      <trkpt lat="47.44439" lon="-1.54222">
        <ele>26</ele>
        <time>2018-02-10T16:25:37Z</time>
      </trkpt>
      <trkpt lat="47.44464" lon="-1.54215">
        <ele>26</ele>
        <time>2018-02-10T16:25:41Z</time>
      </trkpt>
      <trkpt lat="47.44471" lon="-1.54214">
        <ele>26</ele>
        <time>2018-02-10T16:25:42Z</time>
      </trkpt>
      <trkpt lat="47.44519" lon="-1.54199">
        <ele>27</ele>
        <time>2018-02-10T16:25:50Z</time>
      </trkpt>
      <trkpt lat="47.44542" lon="-1.54193">
        <ele>27</ele>
        <time>2018-02-10T16:25:54Z</time>
      </trkpt>
      <trkpt lat="47.44559" lon="-1.54191">
        <ele>28</ele>
        <time>2018-02-10T16:25:57Z</time>
      </trkpt>
      <trkpt lat="47.44575" lon="-1.54188">
        <ele>28</ele>
        <time>2018-02-10T16:26:00Z</time>
      </trkpt>
      <trkpt lat="47.4458" lon="-1.54177">
        <ele>28</ele>
        <time>2018-02-10T16:26:02Z</time>
      </trkpt>
      <trkpt lat="47.44576" lon="-1.54156">
        <ele>28</ele>
        <time>2018-02-10T16:26:05Z</time>
      </trkpt>
      <trkpt lat="47.44563" lon="-1.54107">
        <ele>28</ele>
        <time>2018-02-10T16:26:11Z</time>
      </trkpt>
      <trkpt lat="47.44556" lon="-1.54071">
        <ele>29</ele>
        <time>2018-02-10T16:26:15Z</time>
      </trkpt>
      <trkpt lat="47.44555" lon="-1.54051">
        <ele>29</ele>
        <time>2018-02-10T16:26:17Z</time>
      </trkpt>
      <trkpt lat="47.44557" lon="-1.54021">
        <ele>29</ele>
        <time>2018-02-10T16:26:20Z</time>
      </trkpt>
      <trkpt lat="47.44559" lon="-1.53999">
        <ele>29</ele>
        <time>2018-02-10T16:26:22Z</time>
      </trkpt>
      <trkpt lat="47.4457" lon="-1.53917">
        <ele>28</ele>
        <time>2018-02-10T16:26:30Z</time>
      </trkpt>
      <trkpt lat="47.44587" lon="-1.5385">
        <ele>28</ele>
        <time>2018-02-10T16:26:37Z</time>
      </trkpt>
      <trkpt lat="47.446" lon="-1.53794">
        <ele>28</ele>
        <time>2018-02-10T16:26:43Z</time>
      </trkpt>
      <trkpt lat="47.44621" lon="-1.5372">
        <ele>28</ele>
        <time>2018-02-10T16:26:51Z</time>
      </trkpt>
      <trkpt lat="47.44624" lon="-1.53709">
        <ele>28</ele>
        <time>2018-02-10T16:26:52Z</time>
      </trkpt>
      <trkpt lat="47.44643" lon="-1.53641">
        <ele>28</ele>
        <time>2018-02-10T16:26:59Z</time>
      </trkpt>
      <trkpt lat="47.44662" lon="-1.53588">
        <ele>28</ele>
        <time>2018-02-10T16:27:06Z</time>
      </trkpt>
      <trkpt lat="47.4468" lon="-1.53533">
        <ele>28</ele>
        <time>2018-02-10T16:27:14Z</time>
      </trkpt>
      <trkpt lat="47.44692" lon="-1.53484">
        <ele>29</ele>
        <time>2018-02-10T16:27:21Z</time>
      </trkpt>
      <trkpt lat="47.44695" lon="-1.53456">
        <ele>29</ele>
        <time>2018-02-10T16:27:25Z</time>
      </trkpt>
      <trkpt lat="47.44695" lon="-1.53441">
        <ele>30</ele>
        <time>2018-02-10T16:27:27Z</time>
      </trkpt>
      <trkpt lat="47.4469" lon="-1.53399">
        <ele>30</ele>
        <time>2018-02-10T16:27:33Z</time>
      </trkpt>
      <trkpt lat="47.44683" lon="-1.53351">
        <ele>30</ele>
        <time>2018-02-10T16:27:41Z</time>
      </trkpt>
      <trkpt lat="47.44679" lon="-1.5333">
        <ele>30</ele>
        <time>2018-02-10T16:27:46Z</time>
      </trkpt>
      <trkpt lat="47.44682" lon="-1.53325">
        <ele>30</ele>
        <time>2018-02-10T16:28:21Z</time>
      </trkpt>
      <trkpt lat="47.44684" lon="-1.53324">
        <ele>30</ele>
        <time>2018-02-10T16:28:22Z</time>
      </trkpt>
      <trkpt lat="47.44689" lon="-1.53322">
        <ele>31</ele>
        <time>2018-02-10T16:28:25Z</time>
      </trkpt>
      <trkpt lat="47.44692" lon="-1.53321">
        <ele>31</ele>
        <time>2018-02-10T16:28:26Z</time>
      </trkpt>
      <trkpt lat="47.44712" lon="-1.53312">
        <ele>31</ele>
        <time>2018-02-10T16:28:33Z</time>
      </trkpt>
      <trkpt lat="47.4473" lon="-1.53303">
        <ele>32</ele>
        <time>2018-02-10T16:28:40Z</time>
      </trkpt>
      <trkpt lat="47.44741" lon="-1.53296">
        <ele>33</ele>
        <time>2018-02-10T16:28:46Z</time>
      </trkpt>
      <trkpt lat="47.4474" lon="-1.53288">
        <ele>34</ele>
        <time>2018-02-10T16:30:32Z</time>
      </trkpt>
      <trkpt lat="47.44739" lon="-1.53281">
        <ele>34</ele>
        <time>2018-02-10T16:30:34Z</time>
      </trkpt>
      <trkpt lat="47.44735" lon="-1.53251">
        <ele>34</ele>
        <time>2018-02-10T16:30:40Z</time>
      </trkpt>
      <trkpt lat="47.44734" lon="-1.53214">
        <ele>34</ele>
        <time>2018-02-10T16:30:48Z</time>
      </trkpt>
      <trkpt lat="47.44733" lon="-1.53188">
        <ele>34</ele>
        <time>2018-02-10T16:30:54Z</time>
      </trkpt>
      <trkpt lat="47.44733" lon="-1.53165">
        <ele>34</ele>
        <time>2018-02-10T16:31:00Z</time>
      </trkpt>
      <trkpt lat="47.44731" lon="-1.53139">
        <ele>34</ele>
        <time>2018-02-10T16:31:08Z</time>
      </trkpt>
      <trkpt lat="47.44726" lon="-1.53115">
        <ele>34</ele>
        <time>2018-02-10T16:31:16Z</time>
      </trkpt>
      <trkpt lat="47.4472" lon="-1.5309">
        <ele>34</ele>
        <time>2018-02-10T16:31:24Z</time>
      </trkpt>
      <trkpt lat="47.44712" lon="-1.5306">
        <ele>34</ele>
        <time>2018-02-10T16:31:33Z</time>
      </trkpt>
      <trkpt lat="47.44707" lon="-1.53036">
        <ele>34</ele>
        <time>2018-02-10T16:31:41Z</time>
      </trkpt>
      <trkpt lat="47.44703" lon="-1.5301">
        <ele>34</ele>
        <time>2018-02-10T16:31:49Z</time>
      </trkpt>
      <trkpt lat="47.44701" lon="-1.5299">
        <ele>35</ele>
        <time>2018-02-10T16:31:55Z</time>
      </trkpt>
      <trkpt lat="47.44697" lon="-1.52959">
        <ele>34</ele>
        <time>2018-02-10T16:32:04Z</time>
      </trkpt>
      <trkpt lat="47.44694" lon="-1.52928">
        <ele>34</ele>
        <time>2018-02-10T16:32:14Z</time>
      </trkpt>
      <trkpt lat="47.44691" lon="-1.52906">
        <ele>34</ele>
        <time>2018-02-10T16:32:22Z</time>
      </trkpt>
      <trkpt lat="47.44687" lon="-1.52885">
        <ele>34</ele>
        <time>2018-02-10T16:32:30Z</time>
      </trkpt>
      <trkpt lat="47.44681" lon="-1.52865">
        <ele>34</ele>
        <time>2018-02-10T16:32:37Z</time>
      </trkpt>
      <trkpt lat="47.44671" lon="-1.52838">
        <ele>34</ele>
        <time>2018-02-10T16:32:46Z</time>
      </trkpt>
      <trkpt lat="47.44663" lon="-1.52816">
        <ele>34</ele>
        <time>2018-02-10T16:32:54Z</time>
      </trkpt>
      <trkpt lat="47.44656" lon="-1.52798">
        <ele>34</ele>
        <time>2018-02-10T16:33:00Z</time>
      </trkpt>
      <trkpt lat="47.4465" lon="-1.52773">
        <ele>34</ele>
        <time>2018-02-10T16:33:08Z</time>
      </trkpt>
      <trkpt lat="47.44648" lon="-1.52749">
        <ele>34</ele>
        <time>2018-02-10T16:33:16Z</time>
      </trkpt>
      <trkpt lat="47.44646" lon="-1.52723">
        <ele>34</ele>
        <time>2018-02-10T16:33:24Z</time>
      </trkpt>
      <trkpt lat="47.44645" lon="-1.52704">
        <ele>34</ele>
        <time>2018-02-10T16:33:30Z</time>
      </trkpt>
      <trkpt lat="47.44642" lon="-1.52683">
        <ele>34</ele>
        <time>2018-02-10T16:33:37Z</time>
      </trkpt>
      <trkpt lat="47.44639" lon="-1.52662">
        <ele>34</ele>
        <time>2018-02-10T16:33:44Z</time>
      </trkpt>
      <trkpt lat="47.44634" lon="-1.52641">
        <ele>34</ele>
        <time>2018-02-10T16:33:52Z</time>
      </trkpt>
      <trkpt lat="47.44632" lon="-1.52623">
        <ele>34</ele>
        <time>2018-02-10T16:33:59Z</time>
      </trkpt>
      <trkpt lat="47.4463" lon="-1.52595">
        <ele>34</ele>
        <time>2018-02-10T16:34:08Z</time>
      </trkpt>
      <trkpt lat="47.44629" lon="-1.52574">
        <ele>34</ele>
        <time>2018-02-10T16:34:15Z</time>
      </trkpt>
      <trkpt lat="47.4463" lon="-1.5255">
        <ele>34</ele>
        <time>2018-02-10T16:34:23Z</time>
      </trkpt>
      <trkpt lat="47.44629" lon="-1.52522">
        <ele>34</ele>
        <time>2018-02-10T16:34:32Z</time>
      </trkpt>
      <trkpt lat="47.44622" lon="-1.52501">
        <ele>34</ele>
        <time>2018-02-10T16:34:40Z</time>
      </trkpt>
      <trkpt lat="47.44614" lon="-1.5248">
        <ele>34</ele>
        <time>2018-02-10T16:34:48Z</time>
      </trkpt>
      <trkpt lat="47.44613" lon="-1.52458">
        <ele>34</ele>
        <time>2018-02-10T16:34:55Z</time>
      </trkpt>
      <trkpt lat="47.44615" lon="-1.52439">
        <ele>34</ele>
        <time>2018-02-10T16:35:02Z</time>
      </trkpt>
      <trkpt lat="47.44618" lon="-1.5242">
        <ele>34</ele>
        <time>2018-02-10T16:35:09Z</time>
      </trkpt>
      <trkpt lat="47.44621" lon="-1.52403">
        <ele>34</ele>
        <time>2018-02-10T16:35:15Z</time>
      </trkpt>
      <trkpt lat="47.44623" lon="-1.52383">
        <ele>34</ele>
        <time>2018-02-10T16:35:22Z</time>
      </trkpt>
      <trkpt lat="47.44625" lon="-1.5237">
        <ele>34</ele>
        <time>2018-02-10T16:35:27Z</time>
      </trkpt>
      <trkpt lat="47.44625" lon="-1.52367">
        <ele>34</ele>
        <time>2018-02-10T16:35:28Z</time>
      </trkpt>
      <trkpt lat="47.44622" lon="-1.52352">
        <ele>34</ele>
        <time>2018-02-10T16:35:33Z</time>
      </trkpt>
      <trkpt lat="47.44619" lon="-1.52346">
        <ele>35</ele>
        <time>2018-02-10T16:35:35Z</time>
      </trkpt>
      <trkpt lat="47.44612" lon="-1.52332">
        <ele>34</ele>
        <time>2018-02-10T16:35:41Z</time>
      </trkpt>
      <trkpt lat="47.44609" lon="-1.52325">
        <ele>35</ele>
        <time>2018-02-10T16:35:57Z</time>
      </trkpt>
      <trkpt lat="47.44607" lon="-1.52322">
        <ele>35</ele>
        <time>2018-02-10T16:35:59Z</time>
      </trkpt>
      <trkpt lat="47.44607" lon="-1.52319">
        <ele>35</ele>
        <time>2018-02-10T16:36:00Z</time>
      </trkpt>
      <trkpt lat="47.44611" lon="-1.52312">
        <ele>35</ele>
        <time>2018-02-10T16:36:03Z</time>
      </trkpt>
      <trkpt lat="47.4461" lon="-1.52301">
        <ele>35</ele>
        <time>2018-02-10T16:36:06Z</time>
      </trkpt>
      <trkpt lat="47.44606" lon="-1.52293">
        <ele>35</ele>
        <time>2018-02-10T16:36:08Z</time>
      </trkpt>
      <trkpt lat="47.44598" lon="-1.52276">
        <ele>35</ele>
        <time>2018-02-10T16:36:12Z</time>
      </trkpt>
      <trkpt lat="47.44586" lon="-1.52256">
        <ele>34</ele>
        <time>2018-02-10T16:36:18Z</time>
      </trkpt>
      <trkpt lat="47.44574" lon="-1.52239">
        <ele>34</ele>
        <time>2018-02-10T16:36:24Z</time>
      </trkpt>
      <trkpt lat="47.44562" lon="-1.52208">
        <ele>34</ele>
        <time>2018-02-10T16:36:34Z</time>
      </trkpt>
      <trkpt lat="47.44553" lon="-1.52192">
        <ele>34</ele>
        <time>2018-02-10T16:36:40Z</time>
      </trkpt>
      <trkpt lat="47.44541" lon="-1.52166">
        <ele>34</ele>
        <time>2018-02-10T16:36:49Z</time>
      </trkpt>
      <trkpt lat="47.44533" lon="-1.52146">
        <ele>35</ele>
        <time>2018-02-10T16:36:56Z</time>
      </trkpt>
      <trkpt lat="47.44525" lon="-1.52124">
        <ele>34</ele>
        <time>2018-02-10T16:37:03Z</time>
      </trkpt>
      <trkpt lat="47.44522" lon="-1.521">
        <ele>34</ele>
        <time>2018-02-10T16:37:10Z</time>
      </trkpt>
      <trkpt lat="47.44519" lon="-1.52074">
        <ele>34</ele>
        <time>2018-02-10T16:37:17Z</time>
      </trkpt>
      <trkpt lat="47.44519" lon="-1.52052">
        <ele>34</ele>
        <time>2018-02-10T16:37:24Z</time>
      </trkpt>
      <trkpt lat="47.4452" lon="-1.52035">
        <ele>34</ele>
        <time>2018-02-10T16:37:30Z</time>
      </trkpt>
      <trkpt lat="47.44521" lon="-1.52015">
        <ele>34</ele>
        <time>2018-02-10T16:37:37Z</time>
      </trkpt>
      <trkpt lat="47.44525" lon="-1.51987">
        <ele>34</ele>
        <time>2018-02-10T16:37:46Z</time>
      </trkpt>
      <trkpt lat="47.44529" lon="-1.51964">
        <ele>35</ele>
        <time>2018-02-10T16:37:54Z</time>
      </trkpt>
      <trkpt lat="47.44536" lon="-1.51946">
        <ele>35</ele>
        <time>2018-02-10T16:38:01Z</time>
      </trkpt>
      <trkpt lat="47.44543" lon="-1.51934">
        <ele>35</ele>
        <time>2018-02-10T16:38:08Z</time>
      </trkpt>
      <trkpt lat="47.44549" lon="-1.51922">
        <ele>35</ele>
        <time>2018-02-10T16:38:32Z</time>
      </trkpt>
      <trkpt lat="47.44546" lon="-1.51913">
        <ele>35</ele>
        <time>2018-02-10T16:38:36Z</time>
      </trkpt>
      <trkpt lat="47.44544" lon="-1.51906">
        <ele>35</ele>
        <time>2018-02-10T16:38:39Z</time>
      </trkpt>
      <trkpt lat="47.4454" lon="-1.51899">
        <ele>35</ele>
        <time>2018-02-10T16:38:43Z</time>
      </trkpt>
      <trkpt lat="47.44541" lon="-1.51897">
        <ele>35</ele>
        <time>2018-02-10T16:38:44Z</time>
      </trkpt>
      <trkpt lat="47.44545" lon="-1.51891">
        <ele>35</ele>
        <time>2018-02-10T16:38:48Z</time>
      </trkpt>
      <trkpt lat="47.4455" lon="-1.51885">
        <ele>35</ele>
        <time>2018-02-10T16:38:50Z</time>
      </trkpt>
      <trkpt lat="47.44554" lon="-1.51876">
        <ele>35</ele>
        <time>2018-02-10T16:38:53Z</time>
      </trkpt>
      <trkpt lat="47.44561" lon="-1.51859">
        <ele>34</ele>
        <time>2018-02-10T16:38:58Z</time>
      </trkpt>
      <trkpt lat="47.4457" lon="-1.51838">
        <ele>34</ele>
        <time>2018-02-10T16:39:03Z</time>
      </trkpt>
      <trkpt lat="47.44573" lon="-1.51831">
        <ele>34</ele>
        <time>2018-02-10T16:39:05Z</time>
      </trkpt>
      <trkpt lat="47.44584" lon="-1.51808">
        <ele>34</ele>
        <time>2018-02-10T16:39:12Z</time>
      </trkpt>
      <trkpt lat="47.44594" lon="-1.51785">
        <ele>35</ele>
        <time>2018-02-10T16:39:19Z</time>
      </trkpt>
      <trkpt lat="47.44604" lon="-1.51765">
        <ele>35</ele>
        <time>2018-02-10T16:39:27Z</time>
      </trkpt>
      <trkpt lat="47.44611" lon="-1.51745">
        <ele>35</ele>
        <time>2018-02-10T16:39:33Z</time>
      </trkpt>
      <trkpt lat="47.44618" lon="-1.51729">
        <ele>35</ele>
        <time>2018-02-10T16:39:38Z</time>
      </trkpt>
      <trkpt lat="47.44624" lon="-1.51716">
        <ele>35</ele>
        <time>2018-02-10T16:39:42Z</time>
      </trkpt>
      <trkpt lat="47.44635" lon="-1.51689">
        <ele>35</ele>
        <time>2018-02-10T16:39:50Z</time>
      </trkpt>
      <trkpt lat="47.44645" lon="-1.51667">
        <ele>35</ele>
        <time>2018-02-10T16:39:57Z</time>
      </trkpt>
      <trkpt lat="47.44654" lon="-1.51645">
        <ele>35</ele>
        <time>2018-02-10T16:40:04Z</time>
      </trkpt>
      <trkpt lat="47.44664" lon="-1.51624">
        <ele>35</ele>
        <time>2018-02-10T16:40:11Z</time>
      </trkpt>
      <trkpt lat="47.44672" lon="-1.51605">
        <ele>35</ele>
        <time>2018-02-10T16:40:17Z</time>
      </trkpt>
      <trkpt lat="47.44679" lon="-1.51591">
        <ele>35</ele>
        <time>2018-02-10T16:40:23Z</time>
      </trkpt>
      <trkpt lat="47.44679" lon="-1.51578">
        <ele>35</ele>
        <time>2018-02-10T16:40:36Z</time>
      </trkpt>
      <trkpt lat="47.44677" lon="-1.51577">
        <ele>35</ele>
        <time>2018-02-10T16:40:37Z</time>
      </trkpt>
      <trkpt lat="47.44666" lon="-1.51571">
        <ele>34</ele>
        <time>2018-02-10T16:40:43Z</time>
      </trkpt>
      <trkpt lat="47.4467" lon="-1.51573">
        <ele>34</ele>
        <time>2018-02-10T16:40:56Z</time>
      </trkpt>
      <trkpt lat="47.44672" lon="-1.51574">
        <ele>34</ele>
        <time>2018-02-10T16:40:57Z</time>
      </trkpt>
      <trkpt lat="47.44678" lon="-1.51577">
        <ele>34</ele>
        <time>2018-02-10T16:41:00Z</time>
      </trkpt>
      <trkpt lat="47.44681" lon="-1.51577">
        <ele>35</ele>
        <time>2018-02-10T16:41:02Z</time>
      </trkpt>
      <trkpt lat="47.44684" lon="-1.51574">
        <ele>35</ele>
        <time>2018-02-10T16:41:05Z</time>
      </trkpt>
      <trkpt lat="47.44689" lon="-1.51569">
        <ele>35</ele>
        <time>2018-02-10T16:41:08Z</time>
      </trkpt>
      <trkpt lat="47.44744" lon="-1.51539">
        <ele>34</ele>
        <time>2018-02-10T16:42:04Z</time>
      </trkpt>
      <trkpt lat="47.44746" lon="-1.5154">
        <ele>34</ele>
        <time>2018-02-10T16:42:06Z</time>
      </trkpt>
      <trkpt lat="47.44761" lon="-1.51548">
        <ele>35</ele>
        <time>2018-02-10T16:42:14Z</time>
      </trkpt>
      <trkpt lat="47.44775" lon="-1.51557">
        <ele>35</ele>
        <time>2018-02-10T16:42:20Z</time>
      </trkpt>
      <trkpt lat="47.44788" lon="-1.51569">
        <ele>35</ele>
        <time>2018-02-10T16:42:26Z</time>
      </trkpt>
      <trkpt lat="47.44805" lon="-1.51579">
        <ele>35</ele>
        <time>2018-02-10T16:42:33Z</time>
      </trkpt>
      <trkpt lat="47.44817" lon="-1.51589">
        <ele>35</ele>
        <time>2018-02-10T16:42:39Z</time>
      </trkpt>
      <trkpt lat="47.44831" lon="-1.51599">
        <ele>35</ele>
        <time>2018-02-10T16:42:45Z</time>
      </trkpt>
      <trkpt lat="47.44843" lon="-1.51608">
        <ele>35</ele>
        <time>2018-02-10T16:42:50Z</time>
      </trkpt>
      <trkpt lat="47.44865" lon="-1.51624">
        <ele>35</ele>
        <time>2018-02-10T16:42:59Z</time>
      </trkpt>
      <trkpt lat="47.44882" lon="-1.51636">
        <ele>35</ele>
        <time>2018-02-10T16:43:06Z</time>
      </trkpt>
      <trkpt lat="47.44893" lon="-1.51645">
        <ele>35</ele>
        <time>2018-02-10T16:43:13Z</time>
      </trkpt>
      <trkpt lat="47.44904" lon="-1.51652">
        <ele>35</ele>
        <time>2018-02-10T16:43:21Z</time>
      </trkpt>
      <trkpt lat="47.44915" lon="-1.51657">
        <ele>35</ele>
        <time>2018-02-10T16:43:28Z</time>
      </trkpt>
      <trkpt lat="47.44923" lon="-1.51658">
        <ele>35</ele>
        <time>2018-02-10T16:43:34Z</time>
      </trkpt>
      <trkpt lat="47.44935" lon="-1.51651">
        <ele>35</ele>
        <time>2018-02-10T16:43:41Z</time>
      </trkpt>
      <trkpt lat="47.44943" lon="-1.51642">
        <ele>34</ele>
        <time>2018-02-10T16:43:47Z</time>
      </trkpt>
      <trkpt lat="47.44945" lon="-1.51625">
        <ele>35</ele>
        <time>2018-02-10T16:43:53Z</time>
      </trkpt>
      <trkpt lat="47.44945" lon="-1.51603">
        <ele>35</ele>
        <time>2018-02-10T16:44:01Z</time>
      </trkpt>
      <trkpt lat="47.44945" lon="-1.51578">
        <ele>35</ele>
        <time>2018-02-10T16:44:10Z</time>
      </trkpt>
      <trkpt lat="47.44944" lon="-1.51558">
        <ele>35</ele>
        <time>2018-02-10T16:44:18Z</time>
      </trkpt>
      <trkpt lat="47.44944" lon="-1.5154">
        <ele>35</ele>
        <time>2018-02-10T16:44:25Z</time>
      </trkpt>
      <trkpt lat="47.44944" lon="-1.51514">
        <ele>35</ele>
        <time>2018-02-10T16:44:33Z</time>
      </trkpt>
      <trkpt lat="47.44943" lon="-1.51495">
        <ele>35</ele>
        <time>2018-02-10T16:44:41Z</time>
      </trkpt>
      <trkpt lat="47.4494" lon="-1.51475">
        <ele>35</ele>
        <time>2018-02-10T16:44:49Z</time>
      </trkpt>
      <trkpt lat="47.44938" lon="-1.51461">
        <ele>35</ele>
        <time>2018-02-10T16:44:55Z</time>
      </trkpt>
      <trkpt lat="47.44936" lon="-1.51442">
        <ele>35</ele>
        <time>2018-02-10T16:45:02Z</time>
      </trkpt>
      <trkpt lat="47.44931" lon="-1.51419">
        <ele>35</ele>
        <time>2018-02-10T16:45:11Z</time>
      </trkpt>
      <trkpt lat="47.44931" lon="-1.51416">
        <ele>35</ele>
        <time>2018-02-10T16:45:12Z</time>
      </trkpt>
      <trkpt lat="47.44928" lon="-1.514">
        <ele>35</ele>
        <time>2018-02-10T16:45:18Z</time>
      </trkpt>
      <trkpt lat="47.44924" lon="-1.51378">
        <ele>35</ele>
        <time>2018-02-10T16:45:26Z</time>
      </trkpt>
      <trkpt lat="47.44919" lon="-1.51358">
        <ele>36</ele>
        <time>2018-02-10T16:45:33Z</time>
      </trkpt>
      <trkpt lat="47.44919" lon="-1.51351">
        <ele>36</ele>
        <time>2018-02-10T16:45:36Z</time>
      </trkpt>
      <trkpt lat="47.44916" lon="-1.51345">
        <ele>36</ele>
        <time>2018-02-10T16:45:39Z</time>
      </trkpt>
      <trkpt lat="47.44915" lon="-1.51339">
        <ele>36</ele>
        <time>2018-02-10T16:45:41Z</time>
      </trkpt>
      <trkpt lat="47.44914" lon="-1.51325">
        <ele>35</ele>
        <time>2018-02-10T16:45:46Z</time>
      </trkpt>
      <trkpt lat="47.44913" lon="-1.51309">
        <ele>36</ele>
        <time>2018-02-10T16:45:53Z</time>
      </trkpt>
      <trkpt lat="47.44913" lon="-1.51293">
        <ele>35</ele>
        <time>2018-02-10T16:45:59Z</time>
      </trkpt>
      <trkpt lat="47.44913" lon="-1.5129">
        <ele>35</ele>
        <time>2018-02-10T16:46:00Z</time>
      </trkpt>
      <trkpt lat="47.44912" lon="-1.5127">
        <ele>36</ele>
        <time>2018-02-10T16:46:07Z</time>
      </trkpt>
      <trkpt lat="47.44913" lon="-1.51251">
        <ele>36</ele>
        <time>2018-02-10T16:46:15Z</time>
      </trkpt>
      <trkpt lat="47.44915" lon="-1.51234">
        <ele>35</ele>
        <time>2018-02-10T16:46:21Z</time>
      </trkpt>
      <trkpt lat="47.44916" lon="-1.51218">
        <ele>36</ele>
        <time>2018-02-10T16:46:27Z</time>
      </trkpt>
      <trkpt lat="47.44916" lon="-1.51191">
        <ele>36</ele>
        <time>2018-02-10T16:46:35Z</time>
      </trkpt>
      <trkpt lat="47.44917" lon="-1.51172">
        <ele>36</ele>
        <time>2018-02-10T16:46:42Z</time>
      </trkpt>
      <trkpt lat="47.44919" lon="-1.51157">
        <ele>35</ele>
        <time>2018-02-10T16:46:48Z</time>
      </trkpt>
      <trkpt lat="47.44908" lon="-1.51126">
        <ele>35</ele>
        <time>2018-02-10T16:48:02Z</time>
      </trkpt>
      <trkpt lat="47.44896" lon="-1.51124">
        <ele>35</ele>
        <time>2018-02-10T16:48:06Z</time>
      </trkpt>
      <trkpt lat="47.4489" lon="-1.51124">
        <ele>35</ele>
        <time>2018-02-10T16:48:08Z</time>
      </trkpt>
      <trkpt lat="47.44876" lon="-1.51122">
        <ele>34</ele>
        <time>2018-02-10T16:48:12Z</time>
      </trkpt>
      <trkpt lat="47.44868" lon="-1.5112">
        <ele>34</ele>
        <time>2018-02-10T16:48:14Z</time>
      </trkpt>
      <trkpt lat="47.4485" lon="-1.51115">
        <ele>33</ele>
        <time>2018-02-10T16:48:20Z</time>
      </trkpt>
      <trkpt lat="47.44844" lon="-1.5111">
        <ele>33</ele>
        <time>2018-02-10T16:48:23Z</time>
      </trkpt>
      <trkpt lat="47.44839" lon="-1.51109">
        <ele>33</ele>
        <time>2018-02-10T16:48:25Z</time>
      </trkpt>
      <trkpt lat="47.44837" lon="-1.51109">
        <ele>33</ele>
        <time>2018-02-10T16:48:26Z</time>
      </trkpt>
      <trkpt lat="47.44825" lon="-1.51118">
        <ele>33</ele>
        <time>2018-02-10T16:48:31Z</time>
      </trkpt>
      <trkpt lat="47.44822" lon="-1.51121">
        <ele>33</ele>
        <time>2018-02-10T16:48:32Z</time>
      </trkpt>
      <trkpt lat="47.44803" lon="-1.51138">
        <ele>33</ele>
        <time>2018-02-10T16:48:39Z</time>
      </trkpt>
      <trkpt lat="47.44782" lon="-1.51156">
        <ele>33</ele>
        <time>2018-02-10T16:48:46Z</time>
      </trkpt>
      <trkpt lat="47.44762" lon="-1.51179">
        <ele>33</ele>
        <time>2018-02-10T16:48:54Z</time>
      </trkpt>
      <trkpt lat="47.44744" lon="-1.51201">
        <ele>33</ele>
        <time>2018-02-10T16:49:01Z</time>
      </trkpt>
      <trkpt lat="47.44741" lon="-1.51202">
        <ele>32</ele>
        <time>2018-02-10T16:49:02Z</time>
      </trkpt>
      <trkpt lat="47.44738" lon="-1.51201">
        <ele>32</ele>
        <time>2018-02-10T16:49:04Z</time>
      </trkpt>
      <trkpt lat="47.44736" lon="-1.512">
        <ele>32</ele>
        <time>2018-02-10T16:49:05Z</time>
      </trkpt>
      <trkpt lat="47.44735" lon="-1.51198">
        <ele>32</ele>
        <time>2018-02-10T16:49:06Z</time>
      </trkpt>
      <trkpt lat="47.44734" lon="-1.51208">
        <ele>32</ele>
        <time>2018-02-10T16:49:38Z</time>
      </trkpt>
      <trkpt lat="47.44733" lon="-1.51211">
        <ele>32</ele>
        <time>2018-02-10T16:49:39Z</time>
      </trkpt>
      <trkpt lat="47.44717" lon="-1.51232">
        <ele>32</ele>
        <time>2018-02-10T16:49:45Z</time>
      </trkpt>
      <trkpt lat="47.44696" lon="-1.51259">
        <ele>32</ele>
        <time>2018-02-10T16:49:53Z</time>
      </trkpt>
      <trkpt lat="47.44676" lon="-1.51282">
        <ele>32</ele>
        <time>2018-02-10T16:50:01Z</time>
      </trkpt>
      <trkpt lat="47.44659" lon="-1.51304">
        <ele>33</ele>
        <time>2018-02-10T16:50:08Z</time>
      </trkpt>
      <trkpt lat="47.44647" lon="-1.51318">
        <ele>33</ele>
        <time>2018-02-10T16:50:12Z</time>
      </trkpt>
      <trkpt lat="47.44632" lon="-1.51339">
        <ele>34</ele>
        <time>2018-02-10T16:50:18Z</time>
      </trkpt>
      <trkpt lat="47.4463" lon="-1.51343">
        <ele>34</ele>
        <time>2018-02-10T16:50:19Z</time>
      </trkpt>
      <trkpt lat="47.44617" lon="-1.51361">
        <ele>35</ele>
        <time>2018-02-10T16:50:24Z</time>
      </trkpt>
      <trkpt lat="47.44594" lon="-1.51385">
        <ele>35</ele>
        <time>2018-02-10T16:50:32Z</time>
      </trkpt>
      <trkpt lat="47.44585" lon="-1.51393">
        <ele>35</ele>
        <time>2018-02-10T16:50:35Z</time>
      </trkpt>
      <trkpt lat="47.4457" lon="-1.51404">
        <ele>36</ele>
        <time>2018-02-10T16:50:40Z</time>
      </trkpt>
      <trkpt lat="47.44539" lon="-1.51424">
        <ele>36</ele>
        <time>2018-02-10T16:50:49Z</time>
      </trkpt>
      <trkpt lat="47.44509" lon="-1.51448">
        <ele>36</ele>
        <time>2018-02-10T16:50:58Z</time>
      </trkpt>
      <trkpt lat="47.44475" lon="-1.51471">
        <ele>36</ele>
        <time>2018-02-10T16:51:08Z</time>
      </trkpt>
      <trkpt lat="47.44461" lon="-1.51481">
        <ele>36</ele>
        <time>2018-02-10T16:51:12Z</time>
      </trkpt>
      <trkpt lat="47.44449" lon="-1.5149">
        <ele>36</ele>
        <time>2018-02-10T16:51:16Z</time>
      </trkpt>
      <trkpt lat="47.44432" lon="-1.51503">
        <ele>36</ele>
        <time>2018-02-10T16:51:23Z</time>
      </trkpt>
      <trkpt lat="47.44431" lon="-1.51502">
        <ele>36</ele>
        <time>2018-02-10T16:51:48Z</time>
      </trkpt>
      <trkpt lat="47.44429" lon="-1.51501">
        <ele>36</ele>
        <time>2018-02-10T16:51:49Z</time>
      </trkpt>
      <trkpt lat="47.44424" lon="-1.51491">
        <ele>36</ele>
        <time>2018-02-10T16:51:52Z</time>
      </trkpt>
      <trkpt lat="47.44422" lon="-1.51486">
        <ele>36</ele>
        <time>2018-02-10T16:51:53Z</time>
      </trkpt>
      <trkpt lat="47.44418" lon="-1.51473">
        <ele>35</ele>
        <time>2018-02-10T16:51:56Z</time>
      </trkpt>
      <trkpt lat="47.4441" lon="-1.51451">
        <ele>35</ele>
        <time>2018-02-10T16:52:01Z</time>
      </trkpt>
      <trkpt lat="47.44399" lon="-1.5142">
        <ele>35</ele>
        <time>2018-02-10T16:52:07Z</time>
      </trkpt>
      <trkpt lat="47.44381" lon="-1.51368">
        <ele>35</ele>
        <time>2018-02-10T16:52:16Z</time>
      </trkpt>
      <trkpt lat="47.44358" lon="-1.51301">
        <ele>35</ele>
        <time>2018-02-10T16:52:28Z</time>
      </trkpt>
      <trkpt lat="47.44343" lon="-1.51257">
        <ele>36</ele>
        <time>2018-02-10T16:52:36Z</time>
      </trkpt>
      <trkpt lat="47.44324" lon="-1.51208">
        <ele>36</ele>
        <time>2018-02-10T16:52:45Z</time>
      </trkpt>
      <trkpt lat="47.443" lon="-1.51162">
        <ele>35</ele>
        <time>2018-02-10T16:52:55Z</time>
      </trkpt>
      <trkpt lat="47.44288" lon="-1.51141">
        <ele>35</ele>
        <time>2018-02-10T16:53:00Z</time>
      </trkpt>
      <trkpt lat="47.44283" lon="-1.51111">
        <ele>34</ele>
        <time>2018-02-10T16:53:05Z</time>
      </trkpt>
      <trkpt lat="47.4428" lon="-1.51105">
        <ele>34</ele>
        <time>2018-02-10T16:53:06Z</time>
      </trkpt>
      <trkpt lat="47.44278" lon="-1.511">
        <ele>34</ele>
        <time>2018-02-10T16:53:07Z</time>
      </trkpt>
      <trkpt lat="47.44264" lon="-1.51075">
        <ele>34</ele>
        <time>2018-02-10T16:53:12Z</time>
      </trkpt>
      <trkpt lat="47.4424" lon="-1.51029">
        <ele>34</ele>
        <time>2018-02-10T16:53:21Z</time>
      </trkpt>
      <trkpt lat="47.44222" lon="-1.50989">
        <ele>34</ele>
        <time>2018-02-10T16:53:28Z</time>
      </trkpt>
      <trkpt lat="47.44204" lon="-1.50937">
        <ele>34</ele>
        <time>2018-02-10T16:53:37Z</time>
      </trkpt>
      <trkpt lat="47.44185" lon="-1.50891">
        <ele>34</ele>
        <time>2018-02-10T16:53:45Z</time>
      </trkpt>
      <trkpt lat="47.44179" lon="-1.50875">
        <ele>33</ele>
        <time>2018-02-10T16:53:48Z</time>
      </trkpt>
      <trkpt lat="47.44168" lon="-1.50846">
        <ele>33</ele>
        <time>2018-02-10T16:53:53Z</time>
      </trkpt>
      <trkpt lat="47.4415" lon="-1.50803">
        <ele>33</ele>
        <time>2018-02-10T16:54:01Z</time>
      </trkpt>
      <trkpt lat="47.44134" lon="-1.50766">
        <ele>33</ele>
        <time>2018-02-10T16:54:08Z</time>
      </trkpt>
      <trkpt lat="47.44117" lon="-1.5073">
        <ele>32</ele>
        <time>2018-02-10T16:54:14Z</time>
      </trkpt>
      <trkpt lat="47.4411" lon="-1.50717">
        <ele>32</ele>
        <time>2018-02-10T16:54:16Z</time>
      </trkpt>
      <trkpt lat="47.44094" lon="-1.50683">
        <ele>31</ele>
        <time>2018-02-10T16:54:21Z</time>
      </trkpt>
      <trkpt lat="47.44091" lon="-1.50676">
        <ele>30</ele>
        <time>2018-02-10T16:54:22Z</time>
      </trkpt>
      <trkpt lat="47.44088" lon="-1.5067">
        <ele>30</ele>
        <time>2018-02-10T16:54:23Z</time>
      </trkpt>
      <trkpt lat="47.44078" lon="-1.50648">
        <ele>29</ele>
        <time>2018-02-10T16:54:27Z</time>
      </trkpt>
      <trkpt lat="47.44075" lon="-1.50643">
        <ele>29</ele>
        <time>2018-02-10T16:54:28Z</time>
      </trkpt>
      <trkpt lat="47.44071" lon="-1.50637">
        <ele>28</ele>
        <time>2018-02-10T16:54:31Z</time>
      </trkpt>
      <trkpt lat="47.44069" lon="-1.50635">
        <ele>26</ele>
        <time>2018-02-10T16:55:14Z</time>
      </trkpt>
      <trkpt lat="47.44067" lon="-1.50632">
        <ele>26</ele>
        <time>2018-02-10T16:55:16Z</time>
      </trkpt>
      <trkpt lat="47.44061" lon="-1.50629">
        <ele>26</ele>
        <time>2018-02-10T16:55:19Z</time>
      </trkpt>
      <trkpt lat="47.4406" lon="-1.50626">
        <ele>26</ele>
        <time>2018-02-10T16:55:20Z</time>
      </trkpt>
      <trkpt lat="47.4406" lon="-1.50604">
        <ele>26</ele>
        <time>2018-02-10T16:55:25Z</time>
      </trkpt>
      <trkpt lat="47.44057" lon="-1.5059">
        <ele>26</ele>
        <time>2018-02-10T16:55:30Z</time>
      </trkpt>
      <trkpt lat="47.4405" lon="-1.5059">
        <ele>27</ele>
        <time>2018-02-10T16:55:34Z</time>
      </trkpt>
      <trkpt lat="47.44047" lon="-1.50594">
        <ele>27</ele>
        <time>2018-02-10T16:55:36Z</time>
      </trkpt>
      <trkpt lat="47.44042" lon="-1.50599">
        <ele>27</ele>
        <time>2018-02-10T16:55:38Z</time>
      </trkpt>
      <trkpt lat="47.44037" lon="-1.506">
        <ele>27</ele>
        <time>2018-02-10T16:55:40Z</time>
      </trkpt>
      <trkpt lat="47.44032" lon="-1.50598">
        <ele>26</ele>
        <time>2018-02-10T16:55:42Z</time>
      </trkpt>
      <trkpt lat="47.44027" lon="-1.50597">
        <ele>26</ele>
        <time>2018-02-10T16:55:44Z</time>
      </trkpt>
      <trkpt lat="47.44012" lon="-1.50592">
        <ele>25</ele>
        <time>2018-02-10T16:55:49Z</time>
      </trkpt>
      <trkpt lat="47.44009" lon="-1.50591">
        <ele>25</ele>
        <time>2018-02-10T16:55:50Z</time>
      </trkpt>
      <trkpt lat="47.43995" lon="-1.50591">
        <ele>25</ele>
        <time>2018-02-10T16:55:54Z</time>
      </trkpt>
      <trkpt lat="47.43972" lon="-1.50602">
        <ele>25</ele>
        <time>2018-02-10T16:56:00Z</time>
      </trkpt>
      <trkpt lat="47.43946" lon="-1.50613">
        <ele>25</ele>
        <time>2018-02-10T16:56:06Z</time>
      </trkpt>
      <trkpt lat="47.43926" lon="-1.50625">
        <ele>25</ele>
        <time>2018-02-10T16:56:11Z</time>
      </trkpt>
      <trkpt lat="47.43902" lon="-1.5064">
        <ele>25</ele>
        <time>2018-02-10T16:56:18Z</time>
      </trkpt>
      <trkpt lat="47.43883" lon="-1.50649">
        <ele>25</ele>
        <time>2018-02-10T16:56:23Z</time>
      </trkpt>
      <trkpt lat="47.43866" lon="-1.50654">
        <ele>25</ele>
        <time>2018-02-10T16:56:28Z</time>
      </trkpt>
      <trkpt lat="47.43852" lon="-1.50644">
        <ele>25</ele>
        <time>2018-02-10T16:56:33Z</time>
      </trkpt>
      <trkpt lat="47.4384" lon="-1.50623">
        <ele>25</ele>
        <time>2018-02-10T16:56:38Z</time>
      </trkpt>
      <trkpt lat="47.43831" lon="-1.50606">
        <ele>24</ele>
        <time>2018-02-10T16:56:42Z</time>
      </trkpt>
      <trkpt lat="47.43827" lon="-1.50602">
        <ele>24</ele>
        <time>2018-02-10T16:56:43Z</time>
      </trkpt>
      <trkpt lat="47.43813" lon="-1.50579">
        <ele>23</ele>
        <time>2018-02-10T16:56:48Z</time>
      </trkpt>
      <trkpt lat="47.43803" lon="-1.50551">
        <ele>23</ele>
        <time>2018-02-10T16:56:54Z</time>
      </trkpt>
      <trkpt lat="47.43797" lon="-1.50525">
        <ele>24</ele>
        <time>2018-02-10T16:56:59Z</time>
      </trkpt>
      <trkpt lat="47.43789" lon="-1.50504">
        <ele>24</ele>
        <time>2018-02-10T16:57:04Z</time>
      </trkpt>
      <trkpt lat="47.43785" lon="-1.50502">
        <ele>24</ele>
        <time>2018-02-10T16:57:06Z</time>
      </trkpt>
      <trkpt lat="47.43778" lon="-1.50497">
        <ele>24</ele>
        <time>2018-02-10T16:57:09Z</time>
      </trkpt>
      <trkpt lat="47.43775" lon="-1.50482">
        <ele>24</ele>
        <time>2018-02-10T16:57:13Z</time>
      </trkpt>
      <trkpt lat="47.43769" lon="-1.50471">
        <ele>24</ele>
        <time>2018-02-10T16:57:17Z</time>
      </trkpt>
      <trkpt lat="47.43759" lon="-1.50454">
        <ele>24</ele>
        <time>2018-02-10T16:57:22Z</time>
      </trkpt>
      <trkpt lat="47.43756" lon="-1.50434">
        <ele>24</ele>
        <time>2018-02-10T16:57:25Z</time>
      </trkpt>
      <trkpt lat="47.43756" lon="-1.50428">
        <ele>24</ele>
        <time>2018-02-10T16:57:26Z</time>
      </trkpt>
      <trkpt lat="47.43757" lon="-1.50423">
        <ele>24</ele>
        <time>2018-02-10T16:57:27Z</time>
      </trkpt>
      <trkpt lat="47.43759" lon="-1.50419">
        <ele>24</ele>
        <time>2018-02-10T16:57:28Z</time>
      </trkpt>
      <trkpt lat="47.43762" lon="-1.50413">
        <ele>25</ele>
        <time>2018-02-10T16:57:30Z</time>
      </trkpt>
      <trkpt lat="47.43765" lon="-1.50412">
        <ele>25</ele>
        <time>2018-02-10T16:57:31Z</time>
      </trkpt>
      <trkpt lat="47.43771" lon="-1.50413">
        <ele>25</ele>
        <time>2018-02-10T16:57:33Z</time>
      </trkpt>
      <trkpt lat="47.43774" lon="-1.50415">
        <ele>26</ele>
        <time>2018-02-10T16:57:34Z</time>
      </trkpt>
      <trkpt lat="47.43781" lon="-1.50421">
        <ele>26</ele>
        <time>2018-02-10T16:57:36Z</time>
      </trkpt>
      <trkpt lat="47.43786" lon="-1.50429">
        <ele>26</ele>
        <time>2018-02-10T16:57:38Z</time>
      </trkpt>
      <trkpt lat="47.43784" lon="-1.50434">
        <ele>26</ele>
        <time>2018-02-10T16:57:41Z</time>
      </trkpt>
      <trkpt lat="47.43781" lon="-1.50433">
        <ele>26</ele>
        <time>2018-02-10T16:57:42Z</time>
      </trkpt>
      <trkpt lat="47.43769" lon="-1.50427">
        <ele>26</ele>
        <time>2018-02-10T16:57:45Z</time>
      </trkpt>
      <trkpt lat="47.43766" lon="-1.50429">
        <ele>26</ele>
        <time>2018-02-10T16:57:46Z</time>
      </trkpt>
      <trkpt lat="47.43765" lon="-1.50435">
        <ele>26</ele>
        <time>2018-02-10T16:57:48Z</time>
      </trkpt>
      <trkpt lat="47.4377" lon="-1.5044">
        <ele>26</ele>
        <time>2018-02-10T16:57:51Z</time>
      </trkpt>
      <trkpt lat="47.43774" lon="-1.50453">
        <ele>26</ele>
        <time>2018-02-10T16:57:55Z</time>
      </trkpt>
      <trkpt lat="47.43771" lon="-1.50455">
        <ele>26</ele>
        <time>2018-02-10T16:57:57Z</time>
      </trkpt>
      <trkpt lat="47.43766" lon="-1.50453">
        <ele>26</ele>
        <time>2018-02-10T16:57:59Z</time>
      </trkpt>
      <trkpt lat="47.43755" lon="-1.50434">
        <ele>25</ele>
        <time>2018-02-10T16:58:03Z</time>
      </trkpt>
      <trkpt lat="47.43762" lon="-1.50414">
        <ele>24</ele>
        <time>2018-02-10T16:58:08Z</time>
      </trkpt>
      <trkpt lat="47.43772" lon="-1.50413">
        <ele>25</ele>
        <time>2018-02-10T16:58:12Z</time>
      </trkpt>
      <trkpt lat="47.43784" lon="-1.50428">
        <ele>26</ele>
        <time>2018-02-10T16:58:16Z</time>
      </trkpt>
      <trkpt lat="47.43781" lon="-1.50434">
        <ele>26</ele>
        <time>2018-02-10T16:58:19Z</time>
      </trkpt>
      <trkpt lat="47.43774" lon="-1.50429">
        <ele>26</ele>
        <time>2018-02-10T16:58:21Z</time>
      </trkpt>
      <trkpt lat="47.43765" lon="-1.50429">
        <ele>26</ele>
        <time>2018-02-10T16:58:24Z</time>
      </trkpt>
      <trkpt lat="47.43767" lon="-1.50438">
        <ele>26</ele>
        <time>2018-02-10T16:58:27Z</time>
      </trkpt>
      <trkpt lat="47.43771" lon="-1.50443">
        <ele>26</ele>
        <time>2018-02-10T16:58:30Z</time>
      </trkpt>
      <trkpt lat="47.43773" lon="-1.50454">
        <ele>26</ele>
        <time>2018-02-10T16:58:34Z</time>
      </trkpt>
      <trkpt lat="47.43781" lon="-1.50453">
        <ele>27</ele>
        <time>2018-02-10T16:58:37Z</time>
      </trkpt>
      <trkpt lat="47.43787" lon="-1.50447">
        <ele>27</ele>
        <time>2018-02-10T16:58:39Z</time>
      </trkpt>
      <trkpt lat="47.43789" lon="-1.50445">
        <ele>26</ele>
        <time>2018-02-10T16:58:40Z</time>
      </trkpt>
      <trkpt lat="47.43793" lon="-1.50444">
        <ele>26</ele>
        <time>2018-02-10T16:58:41Z</time>
      </trkpt>
      <trkpt lat="47.43803" lon="-1.50441">
        <ele>26</ele>
        <time>2018-02-10T16:58:44Z</time>
      </trkpt>
      <trkpt lat="47.43807" lon="-1.50442">
        <ele>26</ele>
        <time>2018-02-10T16:58:46Z</time>
      </trkpt>
      <trkpt lat="47.43804" lon="-1.50453">
        <ele>26</ele>
        <time>2018-02-10T16:58:49Z</time>
      </trkpt>
      <trkpt lat="47.43791" lon="-1.50462">
        <ele>26</ele>
        <time>2018-02-10T16:58:53Z</time>
      </trkpt>
      <trkpt lat="47.43779" lon="-1.50465">
        <ele>25</ele>
        <time>2018-02-10T16:58:57Z</time>
      </trkpt>
      <trkpt lat="47.43771" lon="-1.5047">
        <ele>25</ele>
        <time>2018-02-10T16:59:00Z</time>
      </trkpt>
      <trkpt lat="47.43764" lon="-1.50467">
        <ele>25</ele>
        <time>2018-02-10T16:59:02Z</time>
      </trkpt>
      <trkpt lat="47.43756" lon="-1.50454">
        <ele>24</ele>
        <time>2018-02-10T16:59:05Z</time>
      </trkpt>
      <trkpt lat="47.43753" lon="-1.50448">
        <ele>24</ele>
        <time>2018-02-10T16:59:06Z</time>
      </trkpt>
      <trkpt lat="47.43752" lon="-1.50442">
        <ele>24</ele>
        <time>2018-02-10T16:59:07Z</time>
      </trkpt>
      <trkpt lat="47.43753" lon="-1.50425">
        <ele>24</ele>
        <time>2018-02-10T16:59:10Z</time>
      </trkpt>
      <trkpt lat="47.43754" lon="-1.50421">
        <ele>24</ele>
        <time>2018-02-10T16:59:11Z</time>
      </trkpt>
      <trkpt lat="47.4376" lon="-1.50411">
        <ele>24</ele>
        <time>2018-02-10T16:59:14Z</time>
      </trkpt>
      <trkpt lat="47.43761" lon="-1.50408">
        <ele>25</ele>
        <time>2018-02-10T16:59:15Z</time>
      </trkpt>
      <trkpt lat="47.43761" lon="-1.50403">
        <ele>25</ele>
        <time>2018-02-10T16:59:17Z</time>
      </trkpt>
      <trkpt lat="47.43757" lon="-1.5039">
        <ele>26</ele>
        <time>2018-02-10T16:59:22Z</time>
      </trkpt>
      <trkpt lat="47.43757" lon="-1.50387">
        <ele>27</ele>
        <time>2018-02-10T16:59:23Z</time>
      </trkpt>
      <trkpt lat="47.43754" lon="-1.50378">
        <ele>28</ele>
        <time>2018-02-10T16:59:27Z</time>
      </trkpt>
      <trkpt lat="47.43754" lon="-1.50374">
        <ele>28</ele>
        <time>2018-02-10T16:59:28Z</time>
      </trkpt>
      <trkpt lat="47.43754" lon="-1.50365">
        <ele>28</ele>
        <time>2018-02-10T16:59:56Z</time>
      </trkpt>
      <trkpt lat="47.43753" lon="-1.50376">
        <ele>28</ele>
        <time>2018-02-10T17:00:02Z</time>
      </trkpt>
      <trkpt lat="47.43756" lon="-1.50385">
        <ele>28</ele>
        <time>2018-02-10T17:00:08Z</time>
      </trkpt>
      <trkpt lat="47.43759" lon="-1.50398">
        <ele>28</ele>
        <time>2018-02-10T17:00:14Z</time>
      </trkpt>
      <trkpt lat="47.4376" lon="-1.50402">
        <ele>27</ele>
        <time>2018-02-10T17:00:16Z</time>
      </trkpt>
      <trkpt lat="47.43766" lon="-1.50405">
        <ele>27</ele>
        <time>2018-02-10T17:00:19Z</time>
      </trkpt>
      <trkpt lat="47.43776" lon="-1.50415">
        <ele>27</ele>
        <time>2018-02-10T17:00:23Z</time>
      </trkpt>
      <trkpt lat="47.43779" lon="-1.50419">
        <ele>26</ele>
        <time>2018-02-10T17:00:24Z</time>
      </trkpt>
      <trkpt lat="47.4378" lon="-1.50428">
        <ele>26</ele>
        <time>2018-02-10T17:00:26Z</time>
      </trkpt>
      <trkpt lat="47.43777" lon="-1.50428">
        <ele>26</ele>
        <time>2018-02-10T17:00:28Z</time>
      </trkpt>
      <trkpt lat="47.43771" lon="-1.50424">
        <ele>26</ele>
        <time>2018-02-10T17:00:30Z</time>
      </trkpt>
      <trkpt lat="47.43764" lon="-1.50422">
        <ele>26</ele>
        <time>2018-02-10T17:00:33Z</time>
      </trkpt>
      <trkpt lat="47.43759" lon="-1.50429">
        <ele>26</ele>
        <time>2018-02-10T17:00:37Z</time>
      </trkpt>
      <trkpt lat="47.43761" lon="-1.50431">
        <ele>26</ele>
        <time>2018-02-10T17:00:38Z</time>
      </trkpt>
      <trkpt lat="47.43767" lon="-1.50436">
        <ele>26</ele>
        <time>2018-02-10T17:00:40Z</time>
      </trkpt>
      <trkpt lat="47.43771" lon="-1.50448">
        <ele>26</ele>
        <time>2018-02-10T17:00:44Z</time>
      </trkpt>
      <trkpt lat="47.43777" lon="-1.50453">
        <ele>26</ele>
        <time>2018-02-10T17:00:47Z</time>
      </trkpt>
      <trkpt lat="47.43785" lon="-1.50446">
        <ele>26</ele>
        <time>2018-02-10T17:00:50Z</time>
      </trkpt>
      <trkpt lat="47.43794" lon="-1.50442">
        <ele>25</ele>
        <time>2018-02-10T17:00:53Z</time>
      </trkpt>
      <trkpt lat="47.43798" lon="-1.50442">
        <ele>25</ele>
        <time>2018-02-10T17:00:54Z</time>
      </trkpt>
      <trkpt lat="47.43806" lon="-1.50442">
        <ele>25</ele>
        <time>2018-02-10T17:00:57Z</time>
      </trkpt>
      <trkpt lat="47.43807" lon="-1.50446">
        <ele>25</ele>
        <time>2018-02-10T17:00:58Z</time>
      </trkpt>
      <trkpt lat="47.43802" lon="-1.50457">
        <ele>26</ele>
        <time>2018-02-10T17:01:01Z</time>
      </trkpt>
      <trkpt lat="47.43788" lon="-1.50464">
        <ele>26</ele>
        <time>2018-02-10T17:01:05Z</time>
      </trkpt>
      <trkpt lat="47.43776" lon="-1.50469">
        <ele>25</ele>
        <time>2018-02-10T17:01:09Z</time>
      </trkpt>
      <trkpt lat="47.43773" lon="-1.50471">
        <ele>25</ele>
        <time>2018-02-10T17:01:10Z</time>
      </trkpt>
      <trkpt lat="47.43765" lon="-1.50472">
        <ele>25</ele>
        <time>2018-02-10T17:01:13Z</time>
      </trkpt>
      <trkpt lat="47.43756" lon="-1.5046">
        <ele>24</ele>
        <time>2018-02-10T17:01:17Z</time>
      </trkpt>
      <trkpt lat="47.43754" lon="-1.50456">
        <ele>24</ele>
        <time>2018-02-10T17:01:18Z</time>
      </trkpt>
      <trkpt lat="47.43743" lon="-1.50433">
        <ele>24</ele>
        <time>2018-02-10T17:01:23Z</time>
      </trkpt>
      <trkpt lat="47.43726" lon="-1.5041">
        <ele>24</ele>
        <time>2018-02-10T17:01:29Z</time>
      </trkpt>
      <trkpt lat="47.43725" lon="-1.50397">
        <ele>24</ele>
        <time>2018-02-10T17:01:32Z</time>
      </trkpt>
      <trkpt lat="47.43726" lon="-1.50393">
        <ele>25</ele>
        <time>2018-02-10T17:01:33Z</time>
      </trkpt>
      <trkpt lat="47.43728" lon="-1.50384">
        <ele>25</ele>
        <time>2018-02-10T17:01:35Z</time>
      </trkpt>
      <trkpt lat="47.43736" lon="-1.50365">
        <ele>26</ele>
        <time>2018-02-10T17:01:39Z</time>
      </trkpt>
      <trkpt lat="47.43746" lon="-1.50357">
        <ele>26</ele>
        <time>2018-02-10T17:01:43Z</time>
      </trkpt>
      <trkpt lat="47.4375" lon="-1.50342">
        <ele>26</ele>
        <time>2018-02-10T17:04:14Z</time>
      </trkpt>
      <trkpt lat="47.43749" lon="-1.50326">
        <ele>27</ele>
        <time>2018-02-10T17:04:20Z</time>
      </trkpt>
      <trkpt lat="47.43748" lon="-1.50325">
        <ele>27</ele>
        <time>2018-02-10T17:04:21Z</time>
      </trkpt>
      <trkpt lat="47.43743" lon="-1.50315">
        <ele>27</ele>
        <time>2018-02-10T17:04:33Z</time>
      </trkpt>
      <trkpt lat="47.43747" lon="-1.50297">
        <ele>27</ele>
        <time>2018-02-10T17:04:37Z</time>
      </trkpt>
      <trkpt lat="47.43762" lon="-1.50246">
        <ele>27</ele>
        <time>2018-02-10T17:04:48Z</time>
      </trkpt>
      <trkpt lat="47.43771" lon="-1.50207">
        <ele>28</ele>
        <time>2018-02-10T17:04:56Z</time>
      </trkpt>
      <trkpt lat="47.43776" lon="-1.50175">
        <ele>28</ele>
        <time>2018-02-10T17:05:02Z</time>
      </trkpt>
      <trkpt lat="47.43776" lon="-1.50164">
        <ele>29</ele>
        <time>2018-02-10T17:05:04Z</time>
      </trkpt>
      <trkpt lat="47.43776" lon="-1.50142">
        <ele>29</ele>
        <time>2018-02-10T17:05:09Z</time>
      </trkpt>
      <trkpt lat="47.43776" lon="-1.50116">
        <ele>28</ele>
        <time>2018-02-10T17:05:15Z</time>
      </trkpt>
      <trkpt lat="47.43774" lon="-1.50113">
        <ele>28</ele>
        <time>2018-02-10T17:05:16Z</time>
      </trkpt>
      <trkpt lat="47.43768" lon="-1.50111">
        <ele>28</ele>
        <time>2018-02-10T17:05:18Z</time>
      </trkpt>
      <trkpt lat="47.43754" lon="-1.50112">
        <ele>28</ele>
        <time>2018-02-10T17:05:22Z</time>
      </trkpt>
      <trkpt lat="47.43751" lon="-1.50112">
        <ele>28</ele>
        <time>2018-02-10T17:05:23Z</time>
      </trkpt>
      <trkpt lat="47.43722" lon="-1.50111">
        <ele>28</ele>
        <time>2018-02-10T17:05:31Z</time>
      </trkpt>
      <trkpt lat="47.437" lon="-1.501">
        <ele>29</ele>
        <time>2018-02-10T17:05:37Z</time>
      </trkpt>
      <trkpt lat="47.43665" lon="-1.50074">
        <ele>28</ele>
        <time>2018-02-10T17:05:46Z</time>
      </trkpt>
      <trkpt lat="47.43648" lon="-1.5006">
        <ele>27</ele>
        <time>2018-02-10T17:05:50Z</time>
      </trkpt>
      <trkpt lat="47.43638" lon="-1.50049">
        <ele>27</ele>
        <time>2018-02-10T17:05:53Z</time>
      </trkpt>
      <trkpt lat="47.43631" lon="-1.50041">
        <ele>26</ele>
        <time>2018-02-10T17:05:55Z</time>
      </trkpt>
      <trkpt lat="47.43625" lon="-1.50031">
        <ele>25</ele>
        <time>2018-02-10T17:05:58Z</time>
      </trkpt>
      <trkpt lat="47.43621" lon="-1.50024">
        <ele>24</ele>
        <time>2018-02-10T17:06:19Z</time>
      </trkpt>
      <trkpt lat="47.43611" lon="-1.50018">
        <ele>23</ele>
        <time>2018-02-10T17:06:23Z</time>
      </trkpt>
      <trkpt lat="47.43598" lon="-1.5001">
        <ele>23</ele>
        <time>2018-02-10T17:06:27Z</time>
      </trkpt>
      <trkpt lat="47.43596" lon="-1.50006">
        <ele>23</ele>
        <time>2018-02-10T17:06:28Z</time>
      </trkpt>
      <trkpt lat="47.43598" lon="-1.49989">
        <ele>23</ele>
        <time>2018-02-10T17:06:31Z</time>
      </trkpt>
      <trkpt lat="47.43599" lon="-1.49982">
        <ele>23</ele>
        <time>2018-02-10T17:06:32Z</time>
      </trkpt>
      <trkpt lat="47.43603" lon="-1.49961">
        <ele>23</ele>
        <time>2018-02-10T17:06:35Z</time>
      </trkpt>
      <trkpt lat="47.43606" lon="-1.49947">
        <ele>23</ele>
        <time>2018-02-10T17:06:37Z</time>
      </trkpt>
      <trkpt lat="47.4361" lon="-1.49892">
        <ele>22</ele>
        <time>2018-02-10T17:06:45Z</time>
      </trkpt>
      <trkpt lat="47.43612" lon="-1.49841">
        <ele>22</ele>
        <time>2018-02-10T17:06:53Z</time>
      </trkpt>
      <trkpt lat="47.43611" lon="-1.49837">
        <ele>22</ele>
        <time>2018-02-10T17:06:54Z</time>
      </trkpt>
      <trkpt lat="47.43606" lon="-1.49824">
        <ele>22</ele>
        <time>2018-02-10T17:06:57Z</time>
      </trkpt>
      <trkpt lat="47.43602" lon="-1.49799">
        <ele>21</ele>
        <time>2018-02-10T17:07:02Z</time>
      </trkpt>
      <trkpt lat="47.4361" lon="-1.49783">
        <ele>21</ele>
        <time>2018-02-10T17:07:06Z</time>
      </trkpt>
      <trkpt lat="47.43614" lon="-1.49763">
        <ele>21</ele>
        <time>2018-02-10T17:07:10Z</time>
      </trkpt>
      <trkpt lat="47.43613" lon="-1.49758">
        <ele>21</ele>
        <time>2018-02-10T17:07:11Z</time>
      </trkpt>
      <trkpt lat="47.4361" lon="-1.49746">
        <ele>21</ele>
        <time>2018-02-10T17:07:14Z</time>
      </trkpt>
      <trkpt lat="47.43607" lon="-1.49738">
        <ele>21</ele>
        <time>2018-02-10T17:07:18Z</time>
      </trkpt>
      <trkpt lat="47.436" lon="-1.49721">
        <ele>21</ele>
        <time>2018-02-10T17:07:23Z</time>
      </trkpt>
      <trkpt lat="47.43598" lon="-1.49702">
        <ele>21</ele>
        <time>2018-02-10T17:07:28Z</time>
      </trkpt>
      <trkpt lat="47.43598" lon="-1.49697">
        <ele>21</ele>
        <time>2018-02-10T17:07:29Z</time>
      </trkpt>
      <trkpt lat="47.436" lon="-1.49681">
        <ele>21</ele>
        <time>2018-02-10T17:07:32Z</time>
      </trkpt>
      <trkpt lat="47.436" lon="-1.49676">
        <ele>20</ele>
        <time>2018-02-10T17:07:33Z</time>
      </trkpt>
      <trkpt lat="47.43602" lon="-1.49666">
        <ele>20</ele>
        <time>2018-02-10T17:07:35Z</time>
      </trkpt>
      <trkpt lat="47.43607" lon="-1.49658">
        <ele>21</ele>
        <time>2018-02-10T17:07:37Z</time>
      </trkpt>
      <trkpt lat="47.43627" lon="-1.49633">
        <ele>21</ele>
        <time>2018-02-10T17:07:44Z</time>
      </trkpt>
      <trkpt lat="47.43631" lon="-1.49625">
        <ele>21</ele>
        <time>2018-02-10T17:07:46Z</time>
      </trkpt>
      <trkpt lat="47.43631" lon="-1.49621">
        <ele>21</ele>
        <time>2018-02-10T17:07:47Z</time>
      </trkpt>
      <trkpt lat="47.43636" lon="-1.49607">
        <ele>21</ele>
        <time>2018-02-10T17:07:51Z</time>
      </trkpt>
      <trkpt lat="47.43639" lon="-1.49605">
        <ele>21</ele>
        <time>2018-02-10T17:07:52Z</time>
      </trkpt>
      <trkpt lat="47.43644" lon="-1.4959">
        <ele>21</ele>
        <time>2018-02-10T17:07:56Z</time>
      </trkpt>
      <trkpt lat="47.4365" lon="-1.4958">
        <ele>21</ele>
        <time>2018-02-10T17:07:59Z</time>
      </trkpt>
      <trkpt lat="47.43652" lon="-1.49575">
        <ele>21</ele>
        <time>2018-02-10T17:08:00Z</time>
      </trkpt>
      <trkpt lat="47.43661" lon="-1.49553">
        <ele>20</ele>
        <time>2018-02-10T17:08:05Z</time>
      </trkpt>
      <trkpt lat="47.43665" lon="-1.49551">
        <ele>20</ele>
        <time>2018-02-10T17:08:06Z</time>
      </trkpt>
      <trkpt lat="47.43672" lon="-1.49553">
        <ele>20</ele>
        <time>2018-02-10T17:08:08Z</time>
      </trkpt>
      <trkpt lat="47.43679" lon="-1.49556">
        <ele>20</ele>
        <time>2018-02-10T17:08:10Z</time>
      </trkpt>
      <trkpt lat="47.43699" lon="-1.49563">
        <ele>20</ele>
        <time>2018-02-10T17:08:16Z</time>
      </trkpt>
      <trkpt lat="47.43707" lon="-1.49566">
        <ele>20</ele>
        <time>2018-02-10T17:08:20Z</time>
      </trkpt>
      <trkpt lat="47.43709" lon="-1.49565">
        <ele>20</ele>
        <time>2018-02-10T17:08:21Z</time>
      </trkpt>
      <trkpt lat="47.43715" lon="-1.49556">
        <ele>20</ele>
        <time>2018-02-10T17:08:24Z</time>
      </trkpt>
      <trkpt lat="47.43729" lon="-1.49529">
        <ele>20</ele>
        <time>2018-02-10T17:08:31Z</time>
      </trkpt>
      <trkpt lat="47.43738" lon="-1.49482">
        <ele>20</ele>
        <time>2018-02-10T17:08:40Z</time>
      </trkpt>
      <trkpt lat="47.4374" lon="-1.49453">
        <ele>20</ele>
        <time>2018-02-10T17:08:46Z</time>
      </trkpt>
      <trkpt lat="47.4374" lon="-1.49436">
        <ele>20</ele>
        <time>2018-02-10T17:08:50Z</time>
      </trkpt>
      <trkpt lat="47.43742" lon="-1.49434">
        <ele>20</ele>
        <time>2018-02-10T17:08:51Z</time>
      </trkpt>
      <trkpt lat="47.43751" lon="-1.49435">
        <ele>20</ele>
        <time>2018-02-10T17:08:55Z</time>
      </trkpt>
      <trkpt lat="47.43766" lon="-1.49452">
        <ele>20</ele>
        <time>2018-02-10T17:09:01Z</time>
      </trkpt>
      <trkpt lat="47.4378" lon="-1.49468">
        <ele>20</ele>
        <time>2018-02-10T17:09:08Z</time>
      </trkpt>
      <trkpt lat="47.43789" lon="-1.49479">
        <ele>20</ele>
        <time>2018-02-10T17:09:13Z</time>
      </trkpt>
      <trkpt lat="47.43791" lon="-1.49487">
        <ele>20</ele>
        <time>2018-02-10T17:09:15Z</time>
      </trkpt>
      <trkpt lat="47.43791" lon="-1.49491">
        <ele>20</ele>
        <time>2018-02-10T17:09:16Z</time>
      </trkpt>
      <trkpt lat="47.4379" lon="-1.49495">
        <ele>20</ele>
        <time>2018-02-10T17:09:17Z</time>
      </trkpt>
      <trkpt lat="47.43787" lon="-1.49529">
        <ele>20</ele>
        <time>2018-02-10T17:09:24Z</time>
      </trkpt>
      <trkpt lat="47.43776" lon="-1.4954">
        <ele>20</ele>
        <time>2018-02-10T17:10:10Z</time>
      </trkpt>
      <trkpt lat="47.43769" lon="-1.49542">
        <ele>20</ele>
        <time>2018-02-10T17:10:14Z</time>
      </trkpt>
      <trkpt lat="47.43768" lon="-1.49545">
        <ele>20</ele>
        <time>2018-02-10T17:10:15Z</time>
      </trkpt>
      <trkpt lat="47.43769" lon="-1.49558">
        <ele>20</ele>
        <time>2018-02-10T17:10:20Z</time>
      </trkpt>
      <trkpt lat="47.43769" lon="-1.49565">
        <ele>21</ele>
        <time>2018-02-10T17:10:24Z</time>
      </trkpt>
      <trkpt lat="47.43761" lon="-1.49567">
        <ele>20</ele>
        <time>2018-02-10T17:10:28Z</time>
      </trkpt>
      <trkpt lat="47.4376" lon="-1.49578">
        <ele>20</ele>
        <time>2018-02-10T17:10:32Z</time>
      </trkpt>
      <trkpt lat="47.43759" lon="-1.49589">
        <ele>20</ele>
        <time>2018-02-10T17:10:36Z</time>
      </trkpt>
      <trkpt lat="47.43759" lon="-1.49592">
        <ele>20</ele>
        <time>2018-02-10T17:10:37Z</time>
      </trkpt>
      <trkpt lat="47.43756" lon="-1.49596">
        <ele>20</ele>
        <time>2018-02-10T17:10:39Z</time>
      </trkpt>
      <trkpt lat="47.43751" lon="-1.49597">
        <ele>20</ele>
        <time>2018-02-10T17:10:41Z</time>
      </trkpt>
      <trkpt lat="47.43745" lon="-1.49596">
        <ele>20</ele>
        <time>2018-02-10T17:10:43Z</time>
      </trkpt>
      <trkpt lat="47.43729" lon="-1.49592">
        <ele>20</ele>
        <time>2018-02-10T17:10:49Z</time>
      </trkpt>
      <trkpt lat="47.4371" lon="-1.49591">
        <ele>20</ele>
        <time>2018-02-10T17:10:57Z</time>
      </trkpt>
      <trkpt lat="47.43699" lon="-1.49603">
        <ele>20</ele>
        <time>2018-02-10T17:11:03Z</time>
      </trkpt>
      <trkpt lat="47.43698" lon="-1.49617">
        <ele>20</ele>
        <time>2018-02-10T17:11:08Z</time>
      </trkpt>
      <trkpt lat="47.43698" lon="-1.49631">
        <ele>21</ele>
        <time>2018-02-10T17:12:11Z</time>
      </trkpt>
      <trkpt lat="47.43696" lon="-1.49632">
        <ele>21</ele>
        <time>2018-02-10T17:12:12Z</time>
      </trkpt>
      <trkpt lat="47.43686" lon="-1.49634">
        <ele>21</ele>
        <time>2018-02-10T17:12:16Z</time>
      </trkpt>
      <trkpt lat="47.43672" lon="-1.49636">
        <ele>22</ele>
        <time>2018-02-10T17:12:46Z</time>
      </trkpt>
      <trkpt lat="47.43667" lon="-1.49636">
        <ele>21</ele>
        <time>2018-02-10T17:12:48Z</time>
      </trkpt>
      <trkpt lat="47.43646" lon="-1.49643">
        <ele>22</ele>
        <time>2018-02-10T17:12:55Z</time>
      </trkpt>
      <trkpt lat="47.43643" lon="-1.49645">
        <ele>22</ele>
        <time>2018-02-10T17:12:56Z</time>
      </trkpt>
      <trkpt lat="47.43633" lon="-1.4966">
        <ele>22</ele>
        <time>2018-02-10T17:13:00Z</time>
      </trkpt>
      <trkpt lat="47.43614" lon="-1.4969">
        <ele>21</ele>
        <time>2018-02-10T17:13:07Z</time>
      </trkpt>
      <trkpt lat="47.43602" lon="-1.49718">
        <ele>21</ele>
        <time>2018-02-10T17:13:14Z</time>
      </trkpt>
      <trkpt lat="47.43606" lon="-1.49725">
        <ele>21</ele>
        <time>2018-02-10T17:13:17Z</time>
      </trkpt>
      <trkpt lat="47.43613" lon="-1.49725">
        <ele>21</ele>
        <time>2018-02-10T17:13:20Z</time>
      </trkpt>
      <trkpt lat="47.43618" lon="-1.49723">
        <ele>21</ele>
        <time>2018-02-10T17:13:22Z</time>
      </trkpt>
      <trkpt lat="47.43642" lon="-1.49724">
        <ele>21</ele>
        <time>2018-02-10T17:13:30Z</time>
      </trkpt>
      <trkpt lat="47.43647" lon="-1.49723">
        <ele>21</ele>
        <time>2018-02-10T17:13:32Z</time>
      </trkpt>
      <trkpt lat="47.43655" lon="-1.49725">
        <ele>21</ele>
        <time>2018-02-10T17:13:35Z</time>
      </trkpt>
      <trkpt lat="47.43672" lon="-1.49726">
        <ele>21</ele>
        <time>2018-02-10T17:13:40Z</time>
      </trkpt>
      <trkpt lat="47.43688" lon="-1.49724">
        <ele>21</ele>
        <time>2018-02-10T17:13:45Z</time>
      </trkpt>
      <trkpt lat="47.43707" lon="-1.49728">
        <ele>21</ele>
        <time>2018-02-10T17:13:50Z</time>
      </trkpt>
      <trkpt lat="47.43742" lon="-1.49734">
        <ele>21</ele>
        <time>2018-02-10T17:13:59Z</time>
      </trkpt>
      <trkpt lat="47.43773" lon="-1.4974">
        <ele>21</ele>
        <time>2018-02-10T17:14:08Z</time>
      </trkpt>
      <trkpt lat="47.43794" lon="-1.49739">
        <ele>21</ele>
        <time>2018-02-10T17:14:15Z</time>
      </trkpt>
      <trkpt lat="47.43808" lon="-1.49733">
        <ele>21</ele>
        <time>2018-02-10T17:14:21Z</time>
      </trkpt>
      <trkpt lat="47.43818" lon="-1.49733">
        <ele>21</ele>
        <time>2018-02-10T17:14:27Z</time>
      </trkpt>
    </trkseg>
  </trk>
</gpx>